Observation data for Clyde on 04/21/2019      Previous  Date  Next       Current Mesonet Observations  Soil Data  Daily Summary Page  Observations in Plain Language
KCL2 210500Z 18013KT 19/09 A2989 RMK A01 T01880094  RH  054%=      5-min Rain = 0
KCL2 210501Z 18014KT 19/09 A2989 RMK A01 T01880094  RH  055%=      5-min Rain = 0
KCL2 210502Z 18014KT 19/09 A2989 RMK A01 T01870094  RH  055%=      5-min Rain = 0
KCL2 210503Z 18013KT 19/09 A2989 RMK A01 T01880094  RH  054%=      5-min Rain = 0
KCL2 210504Z 17012KT 19/09 A2989 RMK A01 T01880094  RH  054%=      5-min Rain = 0
KCL2 210505Z 17013KT 19/09 A2989 RMK A01 T01880094  RH  055%=      5-min Rain = 0
KCL2 210506Z 18014KT 19/09 A2989 RMK A01 T01870094  RH  055%=      5-min Rain = 0
KCL2 210507Z 17013KT 19/10 A2989 RMK A01 T01870095  RH  055%=      5-min Rain = 0
KCL2 210508Z 18014G19KT 19/10 A2989 RMK A01 T01860095  RH  055%=      5-min Rain = 0
KCL2 210509Z 18013G18KT 19/10 A2989 RMK A01 T01860095  RH  055%=      5-min Rain = 0
KCL2 210510Z 17012KT 19/10 A2989 RMK A01 T01860095  RH  055%=      5-min Rain = 0
KCL2 210511Z 18012KT 19/10 A2989 RMK A01 T01860095  RH  056%=      5-min Rain = 0
KCL2 210512Z 17012G17KT 19/10 A2989 RMK A01 T01850095  RH  056%=      5-min Rain = 0
KCL2 210513Z 18013KT 19/10 A2989 RMK A01 T01850095  RH  056%=      5-min Rain = 0
KCL2 210514Z 18014KT 19/10 A2989 RMK A01 T01850095  RH  056%=      5-min Rain = 0
KCL2 210515Z 18013G18KT 19/10 A2989 RMK A01 T01850095  RH  056%=      5-min Rain = 0
KCL2 210516Z 18014KT 19/10 A2989 RMK A01 T01850095  RH  056%=      5-min Rain = 0
KCL2 210517Z 18014KT 19/10 A2989 RMK A01 T01860095  RH  056%=      5-min Rain = 0
KCL2 210518Z 18013KT 19/10 A2989 RMK A01 T01860095  RH  055%=      5-min Rain = 0
KCL2 210519Z 18013KT 19/10 A2989 RMK A01 T01860095  RH  055%=      5-min Rain = 0
KCL2 210520Z 18017KT 19/10 A2989 RMK A01 T01860095  RH  055%=      5-min Rain = 0
KCL2 210521Z 18015G20KT 19/10 A2989 RMK A01 T01870095  RH  055%=      5-min Rain = 0
KCL2 210522Z 18015KT 19/10 A2989 RMK A01 T01870095  RH  055%=      5-min Rain = 0
KCL2 210523Z 18015KT 19/10 A2989 RMK A01 T01880095  RH  055%=      5-min Rain = 0
KCL2 210524Z 18016KT 19/10 A2989 RMK A01 T01880095  RH  055%=      5-min Rain = 0
KCL2 210525Z 18017G22KT 19/10 A2989 RMK A01 T01880095  RH  055%=      5-min Rain = 0
KCL2 210526Z 18015KT 19/10 A2988 RMK A01 T01880095  RH  055%=      5-min Rain = 0
KCL2 210527Z 18014G19KT 19/10 A2988 RMK A01 T01880095  RH  055%=      5-min Rain = 0
KCL2 210528Z 18013KT 19/10 A2988 RMK A01 T01890095  RH  055%=      5-min Rain = 0
KCL2 210529Z 18017KT 19/10 A2989 RMK A01 T01890095  RH  055%=      5-min Rain = 0
KCL2 210530Z 18016KT 19/10 A2989 RMK A01 T01890095  RH  054%=      5-min Rain = 0
KCL2 210531Z 18017G23KT 19/10 A2989 RMK A01 T01890095  RH  054%=      5-min Rain = 0
KCL2 210532Z 18017KT 19/10 A2988 RMK A01 T01910095  RH  054%=      5-min Rain = 0
KCL2 210533Z 18014KT 19/10 A2989 RMK A01 T01910095  RH  054%=      5-min Rain = 0
KCL2 210534Z 18016KT 19/10 A2988 RMK A01 T01910095  RH  054%=      5-min Rain = 0
KCL2 210535Z 18017KT 19/10 A2988 RMK A01 T01910095  RH  054%=      5-min Rain = 0
KCL2 210536Z 18015KT 19/10 A2988 RMK A01 T01910095  RH  054%=      5-min Rain = 0
KCL2 210537Z 18014KT 19/10 A2988 RMK A01 T01910095  RH  054%=      5-min Rain = 0
KCL2 210538Z 18016KT 19/10 A2988 RMK A01 T01900096  RH  054%=      5-min Rain = 0
KCL2 210539Z 18016KT 19/10 A2988 RMK A01 T01900096  RH  054%=      5-min Rain = 0
KCL2 210540Z 18014KT 19/10 A2988 RMK A01 T01900096  RH  054%=      5-min Rain = 0
KCL2 210541Z 18015KT 19/10 A2988 RMK A01 T01890096  RH  055%=      5-min Rain = 0
KCL2 210542Z 18017KT 19/10 A2988 RMK A01 T01890096  RH  055%=      5-min Rain = 0
KCL2 210543Z 18016KT 19/10 A2988 RMK A01 T01900096  RH  054%=      5-min Rain = 0
KCL2 210544Z 18015KT 19/10 A2988 RMK A01 T01900096  RH  054%=      5-min Rain = 0
KCL2 210545Z 18016KT 19/10 A2988 RMK A01 T01900096  RH  054%=      5-min Rain = 0
KCL2 210546Z 18016KT 19/10 A2988 RMK A01 T01900096  RH  054%=      5-min Rain = 0
KCL2 210547Z 18017G22KT 19/10 A2988 RMK A01 T01900096  RH  054%=      5-min Rain = 0
KCL2 210548Z 18016G23KT 19/10 A2988 RMK A01 T01910096  RH  054%=      5-min Rain = 0
KCL2 210549Z 18017G22KT 19/10 A2988 RMK A01 T01910096  RH  054%=      5-min Rain = 0
KCL2 210550Z 18018KT 19/10 A2988 RMK A01 T01900096  RH  054%=      5-min Rain = 0
KCL2 210551Z 18015KT 19/10 A2988 RMK A01 T01900096  RH  054%=      5-min Rain = 0
KCL2 210552Z 18016KT 19/10 A2988 RMK A01 T01890096  RH  055%=      5-min Rain = 0
KCL2 210553Z 18017G22KT 19/10 A2988 RMK A01 T01890096  RH  055%=      5-min Rain = 0
KCL2 210554Z 18016G22KT 19/10 A2988 RMK A01 T01890096  RH  055%=      5-min Rain = 0
KCL2 210555Z 18018KT 19/10 A2988 RMK A01 T01880096  RH  055%=      5-min Rain = 0
KCL2 210556Z 17016KT 19/10 A2988 RMK A01 T01880096  RH  055%=      5-min Rain = 0
KCL2 210557Z 18016KT 19/10 A2988 RMK A01 T01890096  RH  055%=      5-min Rain = 0
KCL2 210558Z 17015KT 19/10 A2988 RMK A01 T01890097  RH  055%=      5-min Rain = 0
KCL2 210559Z 18018G23KT 19/10 A2988 RMK A01 T01880096  RH  055%=      5-min Rain = 0
KCL2 210600Z 18017KT 19/10 A2988 RMK A01 T01880097  RH  055%=      5-min Rain = 0
KCL2 210601Z 18016G21KT 19/10 A2988 RMK A01 T01880097  RH  055%=      5-min Rain = 0
KCL2 210602Z 18014KT 19/10 A2987 RMK A01 T01880097  RH  056%=      5-min Rain = 0
KCL2 210603Z 18018G23KT 19/10 A2987 RMK A01 T01870097  RH  056%=      5-min Rain = 0
KCL2 210604Z 18016G23KT 19/10 A2987 RMK A01 T01870097  RH  056%=      5-min Rain = 0
KCL2 210605Z 18019KT 19/10 A2987 RMK A01 T01880097  RH  056%=      5-min Rain = 0
KCL2 210606Z 18017KT 19/10 A2987 RMK A01 T01880097  RH  055%=      5-min Rain = 0
KCL2 210607Z 18018G24KT 19/10 A2987 RMK A01 T01880098  RH  056%=      5-min Rain = 0
KCL2 210608Z 18016G24KT 19/10 A2987 RMK A01 T01880098  RH  056%=      5-min Rain = 0
KCL2 210609Z 18014G20KT 19/10 A2987 RMK A01 T01880097  RH  056%=      5-min Rain = 0
KCL2 210610Z 18015G20KT 19/10 A2987 RMK A01 T01880098  RH  056%=      5-min Rain = 0
KCL2 210611Z 18017G23KT 19/10 A2987 RMK A01 T01870098  RH  056%=      5-min Rain = 0
KCL2 210612Z 18014KT 19/10 A2987 RMK A01 T01870098  RH  056%=      5-min Rain = 0
KCL2 210613Z 18016G22KT 19/10 A2987 RMK A01 T01870098  RH  056%=      5-min Rain = 0
KCL2 210614Z 18016G22KT 19/10 A2987 RMK A01 T01860098  RH  057%=      5-min Rain = 0
KCL2 210615Z 17014KT 19/10 A2987 RMK A01 T01860099  RH  057%=      5-min Rain = 0
KCL2 210616Z 18015G20KT 19/10 A2987 RMK A01 T01860098  RH  057%=      5-min Rain = 0
KCL2 210617Z 17014KT 19/10 A2987 RMK A01 T01850099  RH  057%=      5-min Rain = 0
KCL2 210618Z 17014KT 19/10 A2987 RMK A01 T01850099  RH  057%=      5-min Rain = 0
KCL2 210619Z 17016KT 18/10 A2987 RMK A01 T01840099  RH  057%=      5-min Rain = 0
KCL2 210620Z 18016KT 18/10 A2987 RMK A01 T01840099  RH  057%=      5-min Rain = 0
KCL2 210621Z 17017G23KT 18/10 A2987 RMK A01 T01840099  RH  057%=      5-min Rain = 0
KCL2 210622Z 17018KT 19/10 A2987 RMK A01 T01850099  RH  057%=      5-min Rain = 0
KCL2 210623Z 17019KT 19/10 A2987 RMK A01 T01850098  RH  057%=      5-min Rain = 0
KCL2 210624Z 18016KT 19/10 A2987 RMK A01 T01860099  RH  057%=      5-min Rain = 0
KCL2 210625Z 18017G22KT 19/10 A2987 RMK A01 T01850099  RH  057%=      5-min Rain = 0
KCL2 210626Z 17015KT 19/10 A2987 RMK A01 T01850099  RH  057%=      5-min Rain = 0
KCL2 210627Z 17013KT 18/10 A2987 RMK A01 T01840099  RH  058%=      5-min Rain = 0
KCL2 210628Z 17016KT 18/10 A2987 RMK A01 T01840099  RH  058%=      5-min Rain = 0
KCL2 210629Z 18015KT 18/10 A2987 RMK A01 T01830099  RH  058%=      5-min Rain = 0
KCL2 210630Z 18018KT 18/10 A2986 RMK A01 T01830099  RH  058%=      5-min Rain = 0
KCL2 210631Z 18018G23KT 18/10 A2986 RMK A01 T01840099  RH  058%=      5-min Rain = 0
KCL2 210632Z 17018KT 18/10 A2987 RMK A01 T01840099  RH  058%=      5-min Rain = 0
KCL2 210633Z 18018KT 18/10 A2986 RMK A01 T01840099  RH  057%=      5-min Rain = 0
KCL2 210634Z 17017G23KT 18/10 A2986 RMK A01 T01840099  RH  058%=      5-min Rain = 0
KCL2 210635Z 18015KT 18/10 A2986 RMK A01 T01830099  RH  058%=      5-min Rain = 0
KCL2 210636Z 18016G21KT 18/10 A2986 RMK A01 T01830099  RH  058%=      5-min Rain = 0
KCL2 210637Z 18019KT 18/10 A2986 RMK A01 T01820099  RH  058%=      5-min Rain = 0
KCL2 210638Z 17019KT 18/10 A2986 RMK A01 T01820099  RH  058%=      5-min Rain = 0
KCL2 210639Z 18018KT 18/10 A2986 RMK A01 T01830099  RH  058%=      5-min Rain = 0
KCL2 210640Z 18017G22KT 18/10 A2986 RMK A01 T01830099  RH  058%=      5-min Rain = 0
KCL2 210641Z 18016G21KT 18/10 A2986 RMK A01 T01820099  RH  058%=      5-min Rain = 0
KCL2 210642Z 17018KT 18/10 A2986 RMK A01 T01810099  RH  058%=      5-min Rain = 0
KCL2 210643Z 17015KT 18/10 A2986 RMK A01 T01810099  RH  059%=      5-min Rain = 0
KCL2 210644Z 18016G22KT 18/10 A2986 RMK A01 T01800099  RH  059%=      5-min Rain = 0
KCL2 210645Z 18016KT 18/10 A2986 RMK A01 T01800099  RH  059%=      5-min Rain = 0
KCL2 210646Z 18016KT 18/10 A2986 RMK A01 T01800099  RH  059%=      5-min Rain = 0
KCL2 210647Z 18019G25KT 18/10 A2986 RMK A01 T01800099  RH  059%=      5-min Rain = 0
KCL2 210648Z 17019KT 18/10 A2986 RMK A01 T01800099  RH  059%=      5-min Rain = 0
KCL2 210649Z 18018G24KT 18/10 A2986 RMK A01 T01800099  RH  059%=      5-min Rain = 0
KCL2 210650Z 18018G23KT 18/10 A2986 RMK A01 T01800099  RH  059%=      5-min Rain = 0
KCL2 210651Z 17018KT 18/10 A2986 RMK A01 T01800099  RH  059%=      5-min Rain = 0
KCL2 210652Z 18017KT 18/10 A2986 RMK A01 T01800099  RH  059%=      5-min Rain = 0
KCL2 210653Z 18017KT 18/10 A2986 RMK A01 T01800100  RH  059%=      5-min Rain = 0
KCL2 210654Z 18018G25KT 18/10 A2986 RMK A01 T01800099  RH  059%=      5-min Rain = 0
KCL2 210655Z 18016G22KT 18/10 A2986 RMK A01 T01800100  RH  059%=      5-min Rain = 0
KCL2 210656Z 17017KT 18/10 A2986 RMK A01 T01800100  RH  059%=      5-min Rain = 0
KCL2 210657Z 18018KT 18/10 A2986 RMK A01 T01800100  RH  059%=      5-min Rain = 0
KCL2 210658Z 18017KT 18/10 A2986 RMK A01 T01800100  RH  060%=      5-min Rain = 0
KCL2 210659Z 18017KT 18/10 A2986 RMK A01 T01800100  RH  060%=      5-min Rain = 0
KCL2 210700Z 18017KT 18/10 A2986 RMK A01 T01790100  RH  060%=      5-min Rain = 0
KCL2 210701Z 18014KT 18/10 A2986 RMK A01 T01780100  RH  060%=      5-min Rain = 0
KCL2 210702Z 18018KT 18/10 A2986 RMK A01 T01780100  RH  060%=      5-min Rain = 0
KCL2 210703Z 18017G24KT 18/10 A2986 RMK A01 T01780100  RH  060%=      5-min Rain = 0
KCL2 210704Z 18016G21KT 18/10 A2986 RMK A01 T01780100  RH  060%=      5-min Rain = 0
KCL2 210705Z 17017G23KT 18/10 A2986 RMK A01 T01780100  RH  060%=      5-min Rain = 0
KCL2 210706Z 18015KT 18/10 A2986 RMK A01 T01770100  RH  061%=      5-min Rain = 0
KCL2 210707Z 17016KT 18/10 A2986 RMK A01 T01770101  RH  061%=      5-min Rain = 0
KCL2 210708Z 18013KT 18/10 A2986 RMK A01 T01770101  RH  061%=      5-min Rain = 0
KCL2 210709Z 18018KT 18/10 A2986 RMK A01 T01770101  RH  061%=      5-min Rain = 0
KCL2 210710Z 18016KT 18/10 A2986 RMK A01 T01770100  RH  061%=      5-min Rain = 0
KCL2 210711Z 18018KT 18/10 A2986 RMK A01 T01770100  RH  061%=      5-min Rain = 0
KCL2 210712Z 18018KT 18/10 A2986 RMK A01 T01770101  RH  061%=      5-min Rain = 0
KCL2 210713Z 18019KT 18/10 A2986 RMK A01 T01770101  RH  061%=      5-min Rain = 0
KCL2 210714Z 18019KT 18/10 A2986 RMK A01 T01770101  RH  061%=      5-min Rain = 0
KCL2 210715Z 18017KT 18/10 A2986 RMK A01 T01770101  RH  061%=      5-min Rain = 0
KCL2 210716Z 18015G20KT 18/10 A2986 RMK A01 T01770101  RH  061%=      5-min Rain = 0
KCL2 210717Z 18018G24KT 18/10 A2986 RMK A01 T01770101  RH  061%=      5-min Rain = 0
KCL2 210718Z 18018G24KT 18/10 A2986 RMK A01 T01760101  RH  061%=      5-min Rain = 0
KCL2 210719Z 18017KT 18/10 A2986 RMK A01 T01770102  RH  061%=      5-min Rain = 0
KCL2 210720Z 18018KT 18/10 A2986 RMK A01 T01770101  RH  061%=      5-min Rain = 0
KCL2 210721Z 18017KT 18/10 A2986 RMK A01 T01770102  RH  061%=      5-min Rain = 0
KCL2 210722Z 17016KT 18/10 A2986 RMK A01 T01770102  RH  061%=      5-min Rain = 0
KCL2 210723Z 18016KT 18/10 A2986 RMK A01 T01760102  RH  062%=      5-min Rain = 0
KCL2 210724Z 17017G22KT 18/10 A2986 RMK A01 T01760102  RH  062%=      5-min Rain = 0
KCL2 210725Z 17016G21KT 18/10 A2986 RMK A01 T01760102  RH  062%=      5-min Rain = 0
KCL2 210726Z 18016G22KT 18/10 A2986 RMK A01 T01750102  RH  062%=      5-min Rain = 0
KCL2 210727Z 18015KT 18/10 A2986 RMK A01 T01750102  RH  062%=      5-min Rain = 0
KCL2 210728Z 18019KT 17/10 A2986 RMK A01 T01740102  RH  062%=      5-min Rain = 0
KCL2 210729Z 18016G22KT 17/10 A2986 RMK A01 T01740102  RH  062%=      5-min Rain = 0
KCL2 210730Z 18019G25KT 17/10 A2986 RMK A01 T01740102  RH  063%=      5-min Rain = 0
KCL2 210731Z 18016KT 17/10 A2986 RMK A01 T01740102  RH  063%=      5-min Rain = 0
KCL2 210732Z 18018G23KT 17/10 A2986 RMK A01 T01740102  RH  062%=      5-min Rain = 0
KCL2 210733Z 18019KT 17/10 A2985 RMK A01 T01740102  RH  063%=      5-min Rain = 0
KCL2 210734Z 18015KT 18/10 A2986 RMK A01 T01750102  RH  062%=      5-min Rain = 0
KCL2 210735Z 18017KT 17/10 A2986 RMK A01 T01740102  RH  062%=      5-min Rain = 0
KCL2 210736Z 18017KT 17/10 A2985 RMK A01 T01740102  RH  063%=      5-min Rain = 0
KCL2 210737Z 18016KT 17/10 A2985 RMK A01 T01740102  RH  063%=      5-min Rain = 0
KCL2 210738Z 18018KT 17/10 A2985 RMK A01 T01740102  RH  063%=      5-min Rain = 0
KCL2 210739Z 18017KT 17/10 A2985 RMK A01 T01740103  RH  063%=      5-min Rain = 0
KCL2 210740Z 18016KT 17/10 A2985 RMK A01 T01740103  RH  063%=      5-min Rain = 0
KCL2 210741Z 18017KT 17/10 A2985 RMK A01 T01740103  RH  063%=      5-min Rain = 0
KCL2 210742Z 18016KT 17/10 A2985 RMK A01 T01740103  RH  063%=      5-min Rain = 0
KCL2 210743Z 18016KT 17/10 A2985 RMK A01 T01730103  RH  063%=      5-min Rain = 0
KCL2 210744Z 17017G22KT 17/10 A2985 RMK A01 T01720103  RH  064%=      5-min Rain = 0
KCL2 210745Z 17017G22KT 17/10 A2985 RMK A01 T01720103  RH  064%=      5-min Rain = 0
KCL2 210746Z 18018G23KT 17/10 A2985 RMK A01 T01720103  RH  064%=      5-min Rain = 0
KCL2 210747Z 18017G22KT 17/10 A2985 RMK A01 T01730103  RH  064%=      5-min Rain = 0
KCL2 210748Z 18019KT 17/10 A2985 RMK A01 T01730103  RH  063%=      5-min Rain = 0
KCL2 210749Z 18017G24KT 17/10 A2985 RMK A01 T01730103  RH  063%=      5-min Rain = 0
KCL2 210750Z 18019KT 17/10 A2985 RMK A01 T01730103  RH  063%=      5-min Rain = 0
KCL2 210751Z 18015KT 17/10 A2985 RMK A01 T01730103  RH  063%=      5-min Rain = 0
KCL2 210752Z 18016KT 17/10 A2985 RMK A01 T01730103  RH  064%=      5-min Rain = 0
KCL2 210753Z 18018G25KT 17/10 A2985 RMK A01 T01720103  RH  064%=      5-min Rain = 0
KCL2 210754Z 18016G21KT 17/10 A2985 RMK A01 T01720104  RH  064%=      5-min Rain = 0
KCL2 210755Z 18017KT 17/10 A2985 RMK A01 T01720104  RH  064%=      5-min Rain = 0
KCL2 210756Z 18019G24KT 17/10 A2985 RMK A01 T01720104  RH  064%=      5-min Rain = 0
KCL2 210757Z 18014KT 17/10 A2985 RMK A01 T01720104  RH  064%=      5-min Rain = 0
KCL2 210758Z 18018KT 17/10 A2985 RMK A01 T01710104  RH  065%=      5-min Rain = 0
KCL2 210759Z 18014KT 17/10 A2985 RMK A01 T01710104  RH  065%=      5-min Rain = 0
KCL2 210800Z 18016KT 17/10 A2985 RMK A01 T01700104  RH  065%=      5-min Rain = 0
KCL2 210801Z 18014KT 17/10 A2985 RMK A01 T01690104  RH  065%=      5-min Rain = 0
KCL2 210802Z 18017KT 17/10 A2985 RMK A01 T01690104  RH  065%=      5-min Rain = 0
KCL2 210803Z 18016KT 17/10 A2985 RMK A01 T01690104  RH  066%=      5-min Rain = 0
KCL2 210804Z 19015KT 17/10 A2985 RMK A01 T01690104  RH  065%=      5-min Rain = 0
KCL2 210805Z 18017KT 17/10 A2985 RMK A01 T01690104  RH  065%=      5-min Rain = 0
KCL2 210806Z 18018KT 17/10 A2985 RMK A01 T01700104  RH  065%=      5-min Rain = 0
KCL2 210807Z 18018KT 17/10 A2985 RMK A01 T01710104  RH  065%=      5-min Rain = 0
KCL2 210808Z 18019G24KT 17/11 A2985 RMK A01 T01710105  RH  065%=      5-min Rain = 0
KCL2 210809Z 18019KT 17/10 A2985 RMK A01 T01710104  RH  065%=      5-min Rain = 0
KCL2 210810Z 18018KT 17/10 A2985 RMK A01 T01710104  RH  065%=      5-min Rain = 0
KCL2 210811Z 18017KT 17/10 A2985 RMK A01 T01710104  RH  065%=      5-min Rain = 0
KCL2 210812Z 18017KT 17/11 A2985 RMK A01 T01700105  RH  065%=      5-min Rain = 0
KCL2 210813Z 18014KT 17/11 A2985 RMK A01 T01700105  RH  065%=      5-min Rain = 0
KCL2 210814Z 18016KT 17/11 A2985 RMK A01 T01700105  RH  065%=      5-min Rain = 0
KCL2 210815Z 18019G24KT 17/10 A2985 RMK A01 T01690104  RH  066%=      5-min Rain = 0
KCL2 210816Z 18018KT 17/10 A2985 RMK A01 T01690104  RH  066%=      5-min Rain = 0
KCL2 210817Z 19016KT 17/11 A2985 RMK A01 T01700105  RH  065%=      5-min Rain = 0
KCL2 210818Z 18018KT 17/11 A2985 RMK A01 T01690105  RH  066%=      5-min Rain = 0
KCL2 210819Z 18015KT 17/11 A2985 RMK A01 T01690105  RH  066%=      5-min Rain = 0
KCL2 210820Z 18019KT 17/11 A2985 RMK A01 T01690105  RH  066%=      5-min Rain = 0
KCL2 210821Z 18016KT 17/11 A2985 RMK A01 T01680105  RH  066%=      5-min Rain = 0
KCL2 210822Z 18020KT 17/11 A2985 RMK A01 T01680105  RH  066%=      5-min Rain = 0
KCL2 210823Z 18018G23KT 17/11 A2985 RMK A01 T01680105  RH  066%=      5-min Rain = 0
KCL2 210824Z 18019G25KT 17/11 A2985 RMK A01 T01680105  RH  066%=      5-min Rain = 0
KCL2 210825Z 18017G22KT 17/11 A2985 RMK A01 T01670105  RH  066%=      5-min Rain = 0
KCL2 210826Z 18018KT 17/11 A2985 RMK A01 T01670105  RH  067%=      5-min Rain = 0
KCL2 210827Z 18016KT 17/11 A2985 RMK A01 T01670105  RH  067%=      5-min Rain = 0
KCL2 210828Z 18016G24KT 17/11 A2985 RMK A01 T01660105  RH  067%=      5-min Rain = 0
KCL2 210829Z 18018KT 17/11 A2985 RMK A01 T01660105  RH  067%=      5-min Rain = 0
KCL2 210830Z 18021G27KT 17/11 A2985 RMK A01 T01660105  RH  067%=      5-min Rain = 0
KCL2 210831Z 18018KT 17/11 A2985 RMK A01 T01660105  RH  067%=      5-min Rain = 0
KCL2 210832Z 18018KT 17/11 A2985 RMK A01 T01660105  RH  067%=      5-min Rain = 0
KCL2 210833Z 18017G23KT 17/11 A2985 RMK A01 T01660105  RH  067%=      5-min Rain = 0
KCL2 210834Z 18019G24KT 17/11 A2985 RMK A01 T01660105  RH  067%=      5-min Rain = 0
KCL2 210835Z 17018G23KT 17/11 A2985 RMK A01 T01660106  RH  068%=      5-min Rain = 0
KCL2 210836Z 18019G25KT 17/11 A2984 RMK A01 T01650106  RH  068%=      5-min Rain = 0
KCL2 210837Z 18017KT 17/11 A2984 RMK A01 T01650105  RH  068%=      5-min Rain = 0
KCL2 210838Z 18019G27KT 17/11 A2984 RMK A01 T01650106  RH  068%=      5-min Rain = 0
KCL2 210839Z 17019KT 17/11 A2984 RMK A01 T01660106  RH  068%=      5-min Rain = 0
KCL2 210840Z 18019KT 17/11 A2984 RMK A01 T01660106  RH  068%=      5-min Rain = 0
KCL2 210841Z 18019KT 17/11 A2984 RMK A01 T01650105  RH  068%=      5-min Rain = 0
KCL2 210842Z 18020G25KT 17/11 A2984 RMK A01 T01660106  RH  068%=      5-min Rain = 0
KCL2 210843Z 18019G26KT 17/11 A2984 RMK A01 T01660106  RH  068%=      5-min Rain = 0
KCL2 210844Z 18019G25KT 17/11 A2984 RMK A01 T01660106  RH  068%=      5-min Rain = 0
KCL2 210845Z 18020G25KT 17/11 A2984 RMK A01 T01660106  RH  068%=      5-min Rain = 0
KCL2 210846Z 18020G25KT 17/11 A2984 RMK A01 T01650106  RH  068%=      5-min Rain = 0
KCL2 210847Z 18017G23KT 17/11 A2984 RMK A01 T01660106  RH  068%=      5-min Rain = 0
KCL2 210848Z 18020G25KT 17/11 A2985 RMK A01 T01650106  RH  068%=      5-min Rain = 0
KCL2 210849Z 18017G22KT 17/11 A2984 RMK A01 T01650106  RH  068%=      5-min Rain = 0
KCL2 210850Z 17018G25KT 16/11 A2984 RMK A01 T01640107  RH  069%=      5-min Rain = 0
KCL2 210851Z 18018KT 16/11 A2984 RMK A01 T01640107  RH  069%=      5-min Rain = 0
KCL2 210852Z 18019G25KT 16/11 A2984 RMK A01 T01640107  RH  069%=      5-min Rain = 0
KCL2 210853Z 18017G22KT 16/11 A2984 RMK A01 T01640106  RH  069%=      5-min Rain = 0
KCL2 210854Z 18020KT 16/11 A2984 RMK A01 T01640107  RH  069%=      5-min Rain = 0
KCL2 210855Z 18022G28KT 16/11 A2984 RMK A01 T01640107  RH  069%=      5-min Rain = 0
KCL2 210856Z 18019G26KT 16/11 A2984 RMK A01 T01640107  RH  069%=      5-min Rain = 0
KCL2 210857Z 18020G26KT 17/11 A2984 RMK A01 T01650107  RH  069%=      5-min Rain = 0
KCL2 210858Z 18017KT 16/11 A2984 RMK A01 T01640107  RH  069%=      5-min Rain = 0
KCL2 210859Z 18017G23KT 16/11 A2984 RMK A01 T01630107  RH  069%=      5-min Rain = 0
KCL2 210900Z 18017G24KT 16/11 A2984 RMK A01 T01620107  RH  070%=      5-min Rain = 0
KCL2 210901Z 18019KT 16/11 A2984 RMK A01 T01620107  RH  070%=      5-min Rain = 0
KCL2 210902Z 18018KT 16/11 A2984 RMK A01 T01620107  RH  070%=      5-min Rain = 0
KCL2 210903Z 18018G24KT 16/11 A2984 RMK A01 T01620107  RH  070%=      5-min Rain = 0
KCL2 210904Z 18017G22KT 16/11 A2984 RMK A01 T01620107  RH  070%=      5-min Rain = 0
KCL2 210905Z 17017KT 16/11 A2984 RMK A01 T01620107  RH  070%=      5-min Rain = 0
KCL2 210906Z 18021G29KT 16/11 A2984 RMK A01 T01620107  RH  070%=      5-min Rain = 0
KCL2 210907Z 17021G28KT 16/11 A2984 RMK A01 T01620107  RH  070%=      5-min Rain = 0
KCL2 210908Z 17020G27KT 16/11 A2984 RMK A01 T01620107  RH  070%=      5-min Rain = 0
KCL2 210909Z 17019G24KT 16/11 A2984 RMK A01 T01620107  RH  070%=      5-min Rain = 0
KCL2 210910Z 18016G22KT 16/11 A2984 RMK A01 T01610107  RH  070%=      5-min Rain = 0
KCL2 210911Z 18021G26KT 16/11 A2984 RMK A01 T01610107  RH  070%=      5-min Rain = 0
KCL2 210912Z 18016KT 16/11 A2984 RMK A01 T01610107  RH  070%=      5-min Rain = 0
KCL2 210913Z 18018G24KT 16/11 A2984 RMK A01 T01610107  RH  070%=      5-min Rain = 0
KCL2 210914Z 18018G24KT 16/11 A2984 RMK A01 T01610108  RH  071%=      5-min Rain = 0
KCL2 210915Z 18019G24KT 16/11 A2984 RMK A01 T01610108  RH  071%=      5-min Rain = 0
KCL2 210916Z 18019G25KT 16/11 A2984 RMK A01 T01600107  RH  071%=      5-min Rain = 0
KCL2 210917Z 18017G23KT 16/11 A2984 RMK A01 T01610108  RH  071%=      5-min Rain = 0
KCL2 210918Z 18019G24KT 16/11 A2984 RMK A01 T01600108  RH  071%=      5-min Rain = 0
KCL2 210919Z 18019KT 16/11 A2984 RMK A01 T01600108  RH  071%=      5-min Rain = 0
KCL2 210920Z 18018KT 16/11 A2984 RMK A01 T01600108  RH  071%=      5-min Rain = 0
KCL2 210921Z 18021G26KT 16/11 A2984 RMK A01 T01600108  RH  071%=      5-min Rain = 0
KCL2 210922Z 18018KT 16/11 A2984 RMK A01 T01600108  RH  071%=      5-min Rain = 0
KCL2 210923Z 18019KT 16/11 A2984 RMK A01 T01600108  RH  071%=      5-min Rain = 0
KCL2 210924Z 18020G25KT 16/11 A2984 RMK A01 T01600108  RH  071%=      5-min Rain = 0
KCL2 210925Z 17017KT 16/11 A2984 RMK A01 T01590108  RH  072%=      5-min Rain = 0
KCL2 210926Z 18021G27KT 16/11 A2984 RMK A01 T01590108  RH  072%=      5-min Rain = 0
KCL2 210927Z 18020KT 16/11 A2984 RMK A01 T01590108  RH  072%=      5-min Rain = 0
KCL2 210928Z 18017KT 16/11 A2984 RMK A01 T01590108  RH  072%=      5-min Rain = 0
KCL2 210929Z 18019KT 16/11 A2984 RMK A01 T01590108  RH  072%=      5-min Rain = 0
KCL2 210930Z 18019G24KT 16/11 A2984 RMK A01 T01590108  RH  072%=      5-min Rain = 0
KCL2 210931Z 18019KT 16/11 A2984 RMK A01 T01590108  RH  072%=      5-min Rain = 0
KCL2 210932Z 18018G26KT 16/11 A2984 RMK A01 T01580108  RH  072%=      5-min Rain = 0
KCL2 210933Z 18018G23KT 16/11 A2984 RMK A01 T01580108  RH  072%=      5-min Rain = 0
KCL2 210934Z 18019KT 16/11 A2984 RMK A01 T01570108  RH  073%=      5-min Rain = 0
KCL2 210935Z 18018G23KT 16/11 A2984 RMK A01 T01570109  RH  073%=      5-min Rain = 0
KCL2 210936Z 17020KT 16/11 A2983 RMK A01 T01570109  RH  073%=      5-min Rain = 0
KCL2 210937Z 18015KT 16/11 A2984 RMK A01 T01580109  RH  072%=      5-min Rain = 0
KCL2 210938Z 18016KT 16/11 A2984 RMK A01 T01580109  RH  073%=      5-min Rain = 0
KCL2 210939Z 17022G28KT 16/11 A2984 RMK A01 T01570109  RH  073%=      5-min Rain = 0
KCL2 210940Z 18016KT 16/11 A2984 RMK A01 T01570109  RH  073%=      5-min Rain = 0
KCL2 210941Z 18018G23KT 16/11 A2984 RMK A01 T01580109  RH  073%=      5-min Rain = 0
KCL2 210942Z 18018KT 16/11 A2984 RMK A01 T01570109  RH  073%=      5-min Rain = 0
KCL2 210943Z 18017KT 16/11 A2984 RMK A01 T01570109  RH  073%=      5-min Rain = 0
KCL2 210944Z 18020KT 16/11 A2984 RMK A01 T01560109  RH  073%=      5-min Rain = 0
KCL2 210945Z 17018G24KT 16/11 A2984 RMK A01 T01560109  RH  074%=      5-min Rain = 0
KCL2 210946Z 18020KT 16/11 A2984 RMK A01 T01560109  RH  074%=      5-min Rain = 0
KCL2 210947Z 18017KT 16/11 A2984 RMK A01 T01560109  RH  074%=      5-min Rain = 0
KCL2 210948Z 18018KT 16/11 A2984 RMK A01 T01560110  RH  074%=      5-min Rain = 0
KCL2 210949Z 18017KT 16/11 A2984 RMK A01 T01550109  RH  074%=      5-min Rain = 0
KCL2 210950Z 18018KT 16/11 A2984 RMK A01 T01550110  RH  074%=      5-min Rain = 0
KCL2 210951Z 17018KT 16/11 A2984 RMK A01 T01550109  RH  074%=      5-min Rain = 0
KCL2 210952Z 18016G21KT 15/11 A2984 RMK A01 T01540109  RH  075%=      5-min Rain = 0
KCL2 210953Z 18020KT 15/11 A2984 RMK A01 T01530110  RH  075%=      5-min Rain = 0
KCL2 210954Z 17018KT 15/11 A2984 RMK A01 T01530110  RH  075%=      5-min Rain = 0
KCL2 210955Z 18017KT 15/11 A2984 RMK A01 T01530109  RH  075%=      5-min Rain = 0
KCL2 210956Z 18018G25KT 15/11 A2983 RMK A01 T01530110  RH  075%=      5-min Rain = 0
KCL2 210957Z 18019KT 15/11 A2983 RMK A01 T01540110  RH  075%=      5-min Rain = 0
KCL2 210958Z 17020KT 15/11 A2983 RMK A01 T01540110  RH  075%=      5-min Rain = 0
KCL2 210959Z 18020G25KT 15/11 A2983 RMK A01 T01540110  RH  075%=      5-min Rain = 0
KCL2 211000Z 17019KT 15/11 A2983 RMK A01 T01540110  RH  075%=      5-min Rain = 0
KCL2 211001Z 18018KT 15/11 A2983 RMK A01 T01540111  RH  075%=      5-min Rain = 0
KCL2 211002Z 18017G22KT 15/11 A2983 RMK A01 T01540111  RH  075%=      5-min Rain = 0
KCL2 211003Z 18018G26KT 15/11 A2983 RMK A01 T01540111  RH  075%=      5-min Rain = 0
KCL2 211004Z 17019KT 15/11 A2983 RMK A01 T01540111  RH  076%=      5-min Rain = 0
KCL2 211005Z 18018G25KT 15/11 A2983 RMK A01 T01540111  RH  076%=      5-min Rain = 0
KCL2 211006Z 18017KT 15/11 A2983 RMK A01 T01540111  RH  076%=      5-min Rain = 0
KCL2 211007Z 18018G26KT 15/11 A2983 RMK A01 T01530111  RH  076%=      5-min Rain = 0
KCL2 211008Z 18017KT 15/11 A2984 RMK A01 T01530111  RH  076%=      5-min Rain = 0
KCL2 211009Z 18016G21KT 15/11 A2983 RMK A01 T01520111  RH  076%=      5-min Rain = 0
KCL2 211010Z 18018KT 15/11 A2983 RMK A01 T01520111  RH  076%=      5-min Rain = 0
KCL2 211011Z 18016KT 15/11 A2983 RMK A01 T01520111  RH  076%=      5-min Rain = 0
KCL2 211012Z 18019G24KT 15/11 A2983 RMK A01 T01520111  RH  076%=      5-min Rain = 0
KCL2 211013Z 18015KT 15/11 A2984 RMK A01 T01520111  RH  076%=      5-min Rain = 0
KCL2 211014Z 18017G23KT 15/11 A2983 RMK A01 T01520111  RH  076%=      5-min Rain = 0
KCL2 211015Z 18018KT 15/11 A2983 RMK A01 T01520112  RH  077%=      5-min Rain = 0
KCL2 211016Z 18021KT 15/11 A2983 RMK A01 T01520112  RH  077%=      5-min Rain = 0
KCL2 211017Z 18019KT 15/11 A2983 RMK A01 T01530112  RH  076%=      5-min Rain = 0
KCL2 211018Z 18021G26KT 15/11 A2983 RMK A01 T01540112  RH  076%=      5-min Rain = 0
KCL2 211019Z 18019KT 15/11 A2983 RMK A01 T01540112  RH  076%=      5-min Rain = 0
KCL2 211020Z 18017KT 15/11 A2983 RMK A01 T01540112  RH  076%=      5-min Rain = 0
KCL2 211021Z 18022G27KT 15/11 A2983 RMK A01 T01530112  RH  077%=      5-min Rain = 0
KCL2 211022Z 18017G23KT 15/11 A2984 RMK A01 T01530112  RH  076%=      5-min Rain = 0
KCL2 211023Z 18018KT 15/11 A2984 RMK A01 T01530112  RH  076%=      5-min Rain = 0
KCL2 211024Z 18020KT 15/11 A2984 RMK A01 T01520112  RH  077%=      5-min Rain = 0
KCL2 211025Z 18021KT 15/11 A2984 RMK A01 T01520112  RH  077%=      5-min Rain = 0
KCL2 211026Z 18018KT 15/11 A2984 RMK A01 T01530112  RH  077%=      5-min Rain = 0
KCL2 211027Z 18019KT 15/11 A2984 RMK A01 T01530112  RH  077%=      5-min Rain = 0
KCL2 211028Z 18021KT 15/11 A2983 RMK A01 T01530112  RH  077%=      5-min Rain = 0
KCL2 211029Z 18019G27KT 15/11 A2984 RMK A01 T01530113  RH  077%=      5-min Rain = 0
KCL2 211030Z 18019KT 15/11 A2984 RMK A01 T01530112  RH  077%=      5-min Rain = 0
KCL2 211031Z 18019G25KT 15/11 A2984 RMK A01 T01530112  RH  077%=      5-min Rain = 0
KCL2 211032Z 18018G23KT 15/11 A2984 RMK A01 T01530112  RH  077%=      5-min Rain = 0
KCL2 211033Z 18018G23KT 15/11 A2984 RMK A01 T01530112  RH  077%=      5-min Rain = 0
KCL2 211034Z 18018KT 15/11 A2984 RMK A01 T01530113  RH  077%=      5-min Rain = 0
KCL2 211035Z 18020KT 15/11 A2984 RMK A01 T01530113  RH  077%=      5-min Rain = 0
KCL2 211036Z 18018KT 15/11 A2984 RMK A01 T01530113  RH  077%=      5-min Rain = 0
KCL2 211037Z 18019G25KT 15/11 A2984 RMK A01 T01530113  RH  077%=      5-min Rain = 0
KCL2 211038Z 18017KT 15/11 A2984 RMK A01 T01530113  RH  077%=      5-min Rain = 0
KCL2 211039Z 19018KT 15/11 A2984 RMK A01 T01530113  RH  077%=      5-min Rain = 0
KCL2 211040Z 18019KT 15/11 A2984 RMK A01 T01520113  RH  077%=      5-min Rain = 0
KCL2 211041Z 18020KT 15/11 A2984 RMK A01 T01520113  RH  077%=      5-min Rain = 0
KCL2 211042Z 18017KT 15/11 A2984 RMK A01 T01530113  RH  077%=      5-min Rain = 0
KCL2 211043Z 18019KT 15/11 A2984 RMK A01 T01530113  RH  077%=      5-min Rain = 0
KCL2 211044Z 18019G25KT 15/11 A2984 RMK A01 T01530113  RH  077%=      5-min Rain = 0
KCL2 211045Z 18018G25KT 15/11 A2984 RMK A01 T01520113  RH  077%=      5-min Rain = 0
KCL2 211046Z 18019G24KT 15/11 A2984 RMK A01 T01520114  RH  078%=      5-min Rain = 0
KCL2 211047Z 18019G25KT 15/11 A2984 RMK A01 T01520113  RH  078%=      5-min Rain = 0
KCL2 211048Z 18019KT 15/11 A2984 RMK A01 T01520113  RH  078%=      5-min Rain = 0
KCL2 211049Z 18018KT 15/11 A2984 RMK A01 T01510113  RH  078%=      5-min Rain = 0
KCL2 211050Z 18019G24KT 15/11 A2984 RMK A01 T01510113  RH  078%=      5-min Rain = 0
KCL2 211051Z 18019KT 15/11 A2984 RMK A01 T01500113  RH  078%=      5-min Rain = 0
KCL2 211052Z 18020KT 15/11 A2984 RMK A01 T01510114  RH  078%=      5-min Rain = 0
KCL2 211053Z 18020KT 15/11 A2984 RMK A01 T01510114  RH  078%=      5-min Rain = 0
KCL2 211054Z 18018KT 15/11 A2984 RMK A01 T01500113  RH  078%=      5-min Rain = 0
KCL2 211055Z 18019KT 15/11 A2984 RMK A01 T01510113  RH  078%=      5-min Rain = 0
KCL2 211056Z 18018KT 15/11 A2984 RMK A01 T01510114  RH  078%=      5-min Rain = 0
KCL2 211057Z 18018KT 15/11 A2984 RMK A01 T01510114  RH  079%=      5-min Rain = 0
KCL2 211058Z 18018KT 15/11 A2984 RMK A01 T01510114  RH  079%=      5-min Rain = 0
KCL2 211059Z 18019KT 15/11 A2984 RMK A01 T01510114  RH  079%=      5-min Rain = 0
KCL2 211100Z 18019KT 15/11 A2984 RMK A01 T01500114  RH  079%=      5-min Rain = 0
KCL2 211101Z 18019KT 15/11 A2984 RMK A01 T01500114  RH  079%=      5-min Rain = 0
KCL2 211102Z 18016G21KT 15/11 A2984 RMK A01 T01500114  RH  079%=      5-min Rain = 0
KCL2 211103Z 18020KT 15/11 A2984 RMK A01 T01500114  RH  079%=      5-min Rain = 0
KCL2 211104Z 18018KT 15/11 A2984 RMK A01 T01500114  RH  079%=      5-min Rain = 0
KCL2 211105Z 18020KT 15/11 A2984 RMK A01 T01500114  RH  079%=      5-min Rain = 0
KCL2 211106Z 18018G23KT 15/11 A2984 RMK A01 T01500114  RH  079%=      5-min Rain = 0
KCL2 211107Z 18017KT 15/11 A2984 RMK A01 T01500114  RH  079%=      5-min Rain = 0
KCL2 211108Z 18018KT 15/11 A2984 RMK A01 T01500114  RH  079%=      5-min Rain = 0
KCL2 211109Z 18017KT 15/11 A2984 RMK A01 T01500114  RH  079%=      5-min Rain = 0
KCL2 211110Z 18015KT 15/11 A2984 RMK A01 T01500114  RH  079%=      5-min Rain = 0
KCL2 211111Z 17018G23KT 15/11 A2984 RMK A01 T01490114  RH  079%=      5-min Rain = 0
KCL2 211112Z 18017G22KT 15/11 A2984 RMK A01 T01490114  RH  080%=      5-min Rain = 0
KCL2 211113Z 18017G22KT 15/11 A2984 RMK A01 T01490114  RH  080%=      5-min Rain = 0
KCL2 211114Z 18017KT 15/11 A2984 RMK A01 T01490114  RH  079%=      5-min Rain = 0
KCL2 211115Z 18016G21KT 15/11 A2984 RMK A01 T01490114  RH  080%=      5-min Rain = 0
KCL2 211116Z 18018KT 15/11 A2984 RMK A01 T01480114  RH  080%=      5-min Rain = 0
KCL2 211117Z 18018KT 15/11 A2984 RMK A01 T01490114  RH  080%=      5-min Rain = 0
KCL2 211118Z 18017G23KT 15/11 A2984 RMK A01 T01490114  RH  080%=      5-min Rain = 0
KCL2 211119Z 18018G23KT 15/11 A2984 RMK A01 T01490114  RH  080%=      5-min Rain = 0
KCL2 211120Z 18018KT 15/11 A2984 RMK A01 T01490114  RH  080%=      5-min Rain = 0
KCL2 211121Z 18017KT 15/11 A2985 RMK A01 T01490114  RH  080%=      5-min Rain = 0
KCL2 211122Z 17019KT 15/11 A2985 RMK A01 T01490114  RH  080%=      5-min Rain = 0
KCL2 211123Z 18017KT 15/11 A2985 RMK A01 T01490114  RH  080%=      5-min Rain = 0
KCL2 211124Z 18017KT 15/12 A2984 RMK A01 T01490115  RH  080%=      5-min Rain = 0
KCL2 211125Z 18016KT 15/11 A2984 RMK A01 T01490114  RH  080%=      5-min Rain = 0
KCL2 211126Z 18016G22KT 15/11 A2985 RMK A01 T01480114  RH  080%=      5-min Rain = 0
KCL2 211127Z 18017KT 15/11 A2985 RMK A01 T01480114  RH  080%=      5-min Rain = 0
KCL2 211128Z 18018G23KT 15/11 A2985 RMK A01 T01480114  RH  080%=      5-min Rain = 0
KCL2 211129Z 18016KT 15/11 A2985 RMK A01 T01490114  RH  080%=      5-min Rain = 0
KCL2 211130Z 18015G21KT 15/11 A2985 RMK A01 T01490114  RH  080%=      5-min Rain = 0
KCL2 211131Z 18016KT 15/12 A2985 RMK A01 T01490115  RH  080%=      5-min Rain = 0
KCL2 211132Z 18018KT 15/12 A2985 RMK A01 T01490115  RH  080%=      5-min Rain = 0
KCL2 211133Z 18016KT 15/12 A2985 RMK A01 T01490115  RH  080%=      5-min Rain = 0
KCL2 211134Z 18014G19KT 15/11 A2986 RMK A01 T01490114  RH  080%=      5-min Rain = 0
KCL2 211135Z 18016G21KT 15/12 A2986 RMK A01 T01490115  RH  080%=      5-min Rain = 0
KCL2 211136Z 18017KT 15/12 A2986 RMK A01 T01490115  RH  080%=      5-min Rain = 0
KCL2 211137Z 18017G22KT 15/12 A2985 RMK A01 T01490115  RH  080%=      5-min Rain = 0
KCL2 211138Z 18018KT 15/12 A2986 RMK A01 T01490115  RH  080%=      5-min Rain = 0
KCL2 211139Z 19017KT 15/11 A2985 RMK A01 T01490114  RH  080%=      5-min Rain = 0
KCL2 211140Z 18016KT 15/11 A2985 RMK A01 T01490114  RH  080%=      5-min Rain = 0
KCL2 211141Z 18017G22KT 15/12 A2985 RMK A01 T01490115  RH  080%=      5-min Rain = 0
KCL2 211142Z 18017KT 15/12 A2985 RMK A01 T01490115  RH  080%=      5-min Rain = 0
KCL2 211143Z 18019G24KT 15/12 A2985 RMK A01 T01490115  RH  080%=      5-min Rain = 0
KCL2 211144Z 18018KT 15/12 A2986 RMK A01 T01490115  RH  080%=      5-min Rain = 0
KCL2 211145Z 18015KT 15/11 A2986 RMK A01 T01490114  RH  080%=      5-min Rain = 0
KCL2 211146Z 18013KT 15/11 A2986 RMK A01 T01490114  RH  080%=      5-min Rain = 0
KCL2 211147Z 19013G19KT 15/11 A2986 RMK A01 T01480114  RH  080%=      5-min Rain = 0
KCL2 211148Z 19014KT 15/12 A2986 RMK A01 T01480115  RH  080%=      5-min Rain = 0
KCL2 211149Z 19014G19KT 15/12 A2986 RMK A01 T01480115  RH  080%=      5-min Rain = 0
KCL2 211150Z 19014G19KT 15/12 A2986 RMK A01 T01490115  RH  080%=      5-min Rain = 0
KCL2 211151Z 19012G17KT 15/12 A2986 RMK A01 T01490115  RH  080%=      5-min Rain = 0
KCL2 211152Z 19013KT 15/12 A2986 RMK A01 T01500115  RH  080%=      5-min Rain = 0
KCL2 211153Z 20014KT 15/12 A2986 RMK A01 T01490115  RH  080%=      5-min Rain = 0
KCL2 211154Z 19012KT 15/12 A2987 RMK A01 T01490115  RH  080%=      5-min Rain = 0
KCL2 211155Z 19013KT 15/12 A2987 RMK A01 T01490115  RH  080%=      5-min Rain = 0
KCL2 211156Z 19014KT 15/12 A2987 RMK A01 T01500115  RH  080%=      5-min Rain = 0
KCL2 211157Z 19014KT 15/12 A2987 RMK A01 T01500115  RH  079%=      5-min Rain = 0
KCL2 211158Z 18012G18KT 15/12 A2987 RMK A01 T01500115  RH  079%=      5-min Rain = 0
KCL2 211159Z 19016KT 15/12 A2986 RMK A01 T01510115  RH  079%=      5-min Rain = 0
KCL2 211200Z 19014G19KT 15/12 A2986 RMK A01 T01510115  RH  079%=      5-min Rain = 0
KCL2 211201Z 19015KT 15/12 A2986 RMK A01 T01510115  RH  079%=      5-min Rain = 0
KCL2 211202Z 19015KT 15/11 A2986 RMK A01 T01500114  RH  079%=      5-min Rain = 0
KCL2 211203Z 19017KT 15/12 A2986 RMK A01 T01510115  RH  079%=      5-min Rain = 0
KCL2 211204Z 18016G22KT 15/11 A2986 RMK A01 T01510114  RH  078%=      5-min Rain = 0
KCL2 211205Z 18019G24KT 15/12 A2986 RMK A01 T01530115  RH  078%=      5-min Rain = 0
KCL2 211206Z 18015G24KT 15/11 A2986 RMK A01 T01530114  RH  078%=      5-min Rain = 0
KCL2 211207Z 18015G20KT 15/12 A2986 RMK A01 T01530115  RH  078%=      5-min Rain = 0
KCL2 211208Z 18016G23KT 15/11 A2986 RMK A01 T01530114  RH  078%=      5-min Rain = 0
KCL2 211209Z 18017G22KT 15/12 A2986 RMK A01 T01540115  RH  077%=      5-min Rain = 0
KCL2 211210Z 19015G21KT 15/11 A2986 RMK A01 T01540114  RH  077%=      5-min Rain = 0
KCL2 211211Z 18017G24KT 16/11 A2986 RMK A01 T01550114  RH  077%=      5-min Rain = 0
KCL2 211212Z 19018KT 16/11 A2987 RMK A01 T01550114  RH  076%=      5-min Rain = 0
KCL2 211213Z 19015G20KT 16/11 A2987 RMK A01 T01560114  RH  076%=      5-min Rain = 0
KCL2 211214Z 18015KT 16/11 A2987 RMK A01 T01560114  RH  076%=      5-min Rain = 0
KCL2 211215Z 19019KT 16/11 A2986 RMK A01 T01550114  RH  076%=      5-min Rain = 0
KCL2 211216Z 18018KT 16/11 A2987 RMK A01 T01560114  RH  076%=      5-min Rain = 0
KCL2 211217Z 19016KT 16/11 A2987 RMK A01 T01560114  RH  076%=      5-min Rain = 0
KCL2 211218Z 18016G21KT 16/11 A2987 RMK A01 T01570114  RH  075%=      5-min Rain = 0
KCL2 211219Z 19013KT 16/11 A2987 RMK A01 T01570114  RH  075%=      5-min Rain = 0
KCL2 211220Z 18017KT 16/11 A2986 RMK A01 T01560114  RH  076%=      5-min Rain = 0
KCL2 211221Z 18014G20KT 16/11 A2986 RMK A01 T01560114  RH  076%=      5-min Rain = 0
KCL2 211222Z 18016G24KT 16/11 A2986 RMK A01 T01560114  RH  076%=      5-min Rain = 0
KCL2 211223Z 18015G21KT 16/11 A2986 RMK A01 T01560114  RH  076%=      5-min Rain = 0
KCL2 211224Z 18018G23KT 16/11 A2986 RMK A01 T01560114  RH  076%=      5-min Rain = 0
KCL2 211225Z 18016KT 16/11 A2987 RMK A01 T01560114  RH  076%=      5-min Rain = 0
KCL2 211226Z 18015KT 16/11 A2987 RMK A01 T01560114  RH  076%=      5-min Rain = 0
KCL2 211227Z 19016KT 16/11 A2987 RMK A01 T01550114  RH  076%=      5-min Rain = 0
KCL2 211228Z 19017G22KT 16/11 A2987 RMK A01 T01550114  RH  076%=      5-min Rain = 0
KCL2 211229Z 18017KT 16/11 A2987 RMK A01 T01550114  RH  076%=      5-min Rain = 0
KCL2 211230Z 18015G20KT 16/11 A2987 RMK A01 T01550114  RH  076%=      5-min Rain = 0
KCL2 211231Z 18016G23KT 15/11 A2987 RMK A01 T01540114  RH  077%=      5-min Rain = 0
KCL2 211232Z 18019G25KT 15/11 A2987 RMK A01 T01540113  RH  077%=      5-min Rain = 0
KCL2 211233Z 18018KT 16/11 A2987 RMK A01 T01550113  RH  076%=      5-min Rain = 0
KCL2 211234Z 18015G21KT 16/11 A2987 RMK A01 T01550114  RH  076%=      5-min Rain = 0
KCL2 211235Z 18018G23KT 15/11 A2987 RMK A01 T01540113  RH  077%=      5-min Rain = 0
KCL2 211236Z 18018KT 15/11 A2987 RMK A01 T01540113  RH  076%=      5-min Rain = 0
KCL2 211237Z 18017KT 16/11 A2987 RMK A01 T01550113  RH  076%=      5-min Rain = 0
KCL2 211238Z 18014KT 16/11 A2987 RMK A01 T01550113  RH  076%=      5-min Rain = 0
KCL2 211239Z 18016G22KT 15/11 A2987 RMK A01 T01540113  RH  076%=      5-min Rain = 0
KCL2 211240Z 18018KT 15/11 A2987 RMK A01 T01540112  RH  076%=      5-min Rain = 0
KCL2 211241Z 18017KT 16/11 A2987 RMK A01 T01550112  RH  076%=      5-min Rain = 0
KCL2 211242Z 19018G24KT 16/11 A2987 RMK A01 T01560112  RH  075%=      5-min Rain = 0
KCL2 211243Z 18017KT 16/11 A2987 RMK A01 T01570113  RH  075%=      5-min Rain = 0
KCL2 211244Z 18016KT 16/11 A2987 RMK A01 T01570113  RH  075%=      5-min Rain = 0
KCL2 211245Z 18016KT 16/11 A2987 RMK A01 T01560113  RH  075%=      5-min Rain = 0
KCL2 211246Z 18016G22KT 16/11 A2987 RMK A01 T01560113  RH  075%=      5-min Rain = 0
KCL2 211247Z 18019KT 16/11 A2987 RMK A01 T01560113  RH  075%=      5-min Rain = 0
KCL2 211248Z 18017G22KT 16/11 A2987 RMK A01 T01560112  RH  075%=      5-min Rain = 0
KCL2 211249Z 18018KT 16/11 A2987 RMK A01 T01570112  RH  075%=      5-min Rain = 0
KCL2 211250Z 18019KT 16/11 A2987 RMK A01 T01580111  RH  074%=      5-min Rain = 0
KCL2 211251Z 18020G25KT 16/11 A2987 RMK A01 T01590111  RH  073%=      5-min Rain = 0
KCL2 211252Z 18018KT 16/11 A2987 RMK A01 T01600111  RH  073%=      5-min Rain = 0
KCL2 211253Z 18022G28KT 16/11 A2987 RMK A01 T01600111  RH  073%=      5-min Rain = 0
KCL2 211254Z 18019KT 16/11 A2987 RMK A01 T01610110  RH  072%=      5-min Rain = 0
KCL2 211255Z 18018G23KT 16/11 A2987 RMK A01 T01620111  RH  072%=      5-min Rain = 0
KCL2 211256Z 18017G22KT 16/11 A2987 RMK A01 T01620111  RH  072%=      5-min Rain = 0
KCL2 211257Z 18017G23KT 16/11 A2987 RMK A01 T01620111  RH  072%=      5-min Rain = 0
KCL2 211258Z 17017G24KT 16/11 A2987 RMK A01 T01620110  RH  072%=      5-min Rain = 0
KCL2 211259Z 18018KT 16/11 A2987 RMK A01 T01620110  RH  071%=      5-min Rain = 0
KCL2 211300Z 18018G23KT 16/11 A2987 RMK A01 T01630110  RH  071%=      5-min Rain = 0
KCL2 211301Z 18018KT 16/11 A2987 RMK A01 T01620110  RH  071%=      5-min Rain = 0
KCL2 211302Z 18018G23KT 16/11 A2987 RMK A01 T01630110  RH  071%=      5-min Rain = 0
KCL2 211303Z 18018G25KT 16/11 A2987 RMK A01 T01630110  RH  071%=      5-min Rain = 0
KCL2 211304Z 18016KT 16/11 A2987 RMK A01 T01630111  RH  071%=      5-min Rain = 0
KCL2 211305Z 18017G24KT 16/11 A2987 RMK A01 T01630110  RH  071%=      5-min Rain = 0
KCL2 211306Z 18019G24KT 16/11 A2987 RMK A01 T01640110  RH  070%=      5-min Rain = 0
KCL2 211307Z 18017KT 16/11 A2987 RMK A01 T01640109  RH  070%=      5-min Rain = 0
KCL2 211308Z 18017KT 17/11 A2987 RMK A01 T01650110  RH  070%=      5-min Rain = 0
KCL2 211309Z 18019KT 17/11 A2987 RMK A01 T01650110  RH  070%=      5-min Rain = 0
KCL2 211310Z 18017KT 17/11 A2987 RMK A01 T01650109  RH  069%=      5-min Rain = 0
KCL2 211311Z 18016KT 17/11 A2987 RMK A01 T01660110  RH  069%=      5-min Rain = 0
KCL2 211312Z 18017G22KT 17/11 A2988 RMK A01 T01660110  RH  069%=      5-min Rain = 0
KCL2 211313Z 18015KT 17/11 A2988 RMK A01 T01660110  RH  069%=      5-min Rain = 0
KCL2 211314Z 18015KT 17/11 A2988 RMK A01 T01660110  RH  069%=      5-min Rain = 0
KCL2 211315Z 18015KT 17/11 A2988 RMK A01 T01660110  RH  069%=      5-min Rain = 0
KCL2 211316Z 19016G23KT 17/11 A2988 RMK A01 T01670110  RH  069%=      5-min Rain = 0
KCL2 211317Z 19018KT 17/11 A2988 RMK A01 T01670109  RH  068%=      5-min Rain = 0
KCL2 211318Z 18019G24KT 17/11 A2988 RMK A01 T01680109  RH  068%=      5-min Rain = 0
KCL2 211319Z 18019KT 17/11 A2988 RMK A01 T01690108  RH  067%=      5-min Rain = 0
KCL2 211320Z 18016KT 17/11 A2988 RMK A01 T01690109  RH  068%=      5-min Rain = 0
KCL2 211321Z 18018KT 17/11 A2988 RMK A01 T01690109  RH  068%=      5-min Rain = 0
KCL2 211322Z 18014KT 17/11 A2988 RMK A01 T01690109  RH  068%=      5-min Rain = 0
KCL2 211323Z 18019KT 17/11 A2988 RMK A01 T01700109  RH  067%=      5-min Rain = 0
KCL2 211324Z 19018KT 17/11 A2988 RMK A01 T01700108  RH  067%=      5-min Rain = 0
KCL2 211325Z 19018G23KT 17/11 A2988 RMK A01 T01710108  RH  067%=      5-min Rain = 0
KCL2 211326Z 18019KT 17/11 A2988 RMK A01 T01710107  RH  066%=      5-min Rain = 0
KCL2 211327Z 18016KT 17/11 A2988 RMK A01 T01720108  RH  066%=      5-min Rain = 0
KCL2 211328Z 18015G20KT 17/11 A2988 RMK A01 T01720109  RH  067%=      5-min Rain = 0
KCL2 211329Z 18016KT 17/11 A2988 RMK A01 T01720109  RH  066%=      5-min Rain = 0
KCL2 211330Z 18019G24KT 17/11 A2988 RMK A01 T01730107  RH  065%=      5-min Rain = 0
KCL2 211331Z 18016G21KT 17/11 A2988 RMK A01 T01730107  RH  065%=      5-min Rain = 0
KCL2 211332Z 18016G21KT 17/11 A2988 RMK A01 T01740108  RH  065%=      5-min Rain = 0
KCL2 211333Z 18016KT 17/11 A2988 RMK A01 T01740107  RH  065%=      5-min Rain = 0
KCL2 211334Z 19016KT 18/11 A2988 RMK A01 T01750107  RH  065%=      5-min Rain = 0
KCL2 211335Z 18013KT 18/11 A2988 RMK A01 T01750109  RH  065%=      5-min Rain = 0
KCL2 211336Z 18016KT 18/11 A2988 RMK A01 T01750107  RH  064%=      5-min Rain = 0
KCL2 211337Z 18015KT 18/11 A2988 RMK A01 T01760106  RH  063%=      5-min Rain = 0
KCL2 211338Z 18017KT 18/11 A2988 RMK A01 T01770108  RH  064%=      5-min Rain = 0
KCL2 211339Z 18013KT 18/11 A2988 RMK A01 T01770108  RH  064%=      5-min Rain = 0
KCL2 211340Z 18016G21KT 18/11 A2988 RMK A01 T01770108  RH  064%=      5-min Rain = 0
KCL2 211341Z 18014KT 18/11 A2988 RMK A01 T01770107  RH  063%=      5-min Rain = 0
KCL2 211342Z 18017KT 18/11 A2988 RMK A01 T01780107  RH  063%=      5-min Rain = 0
KCL2 211343Z 19017KT 18/11 A2988 RMK A01 T01780106  RH  062%=      5-min Rain = 0
KCL2 211344Z 19015KT 18/11 A2988 RMK A01 T01780106  RH  063%=      5-min Rain = 0
KCL2 211345Z 18016KT 18/11 A2988 RMK A01 T01790107  RH  063%=      5-min Rain = 0
KCL2 211346Z 19017KT 18/11 A2988 RMK A01 T01790107  RH  062%=      5-min Rain = 0
KCL2 211347Z 18018G24KT 18/11 A2988 RMK A01 T01810105  RH  061%=      5-min Rain = 0
KCL2 211348Z 19014G19KT 18/10 A2988 RMK A01 T01810104  RH  061%=      5-min Rain = 0
KCL2 211349Z 18015KT 18/11 A2988 RMK A01 T01820106  RH  061%=      5-min Rain = 0
KCL2 211350Z 19017KT 18/11 A2988 RMK A01 T01830107  RH  061%=      5-min Rain = 0
KCL2 211351Z 19017KT 18/11 A2988 RMK A01 T01830105  RH  060%=      5-min Rain = 0
KCL2 211352Z 19015G21KT 18/11 A2988 RMK A01 T01830106  RH  061%=      5-min Rain = 0
KCL2 211353Z 19017G22KT 18/11 A2988 RMK A01 T01830105  RH  060%=      5-min Rain = 0
KCL2 211354Z 18017G22KT 18/10 A2988 RMK A01 T01840104  RH  060%=      5-min Rain = 0
KCL2 211355Z 19014KT 19/11 A2988 RMK A01 T01850105  RH  060%=      5-min Rain = 0
KCL2 211356Z 19014G19KT 19/11 A2988 RMK A01 T01850106  RH  060%=      5-min Rain = 0
KCL2 211357Z 19014KT 19/11 A2988 RMK A01 T01860105  RH  059%=      5-min Rain = 0
KCL2 211358Z 19015KT 19/11 A2988 RMK A01 T01860106  RH  060%=      5-min Rain = 0
KCL2 211359Z 19015KT 19/11 A2988 RMK A01 T01860106  RH  059%=      5-min Rain = 0
KCL2 211400Z 19018KT 19/11 A2988 RMK A01 T01870105  RH  059%=      5-min Rain = 0
KCL2 211401Z 18017G23KT 19/10 A2988 RMK A01 T01860104  RH  059%=      5-min Rain = 0
KCL2 211402Z 19018KT 19/10 A2988 RMK A01 T01860104  RH  059%=      5-min Rain = 0
KCL2 211403Z 19014KT 19/10 A2988 RMK A01 T01860104  RH  059%=      5-min Rain = 0
KCL2 211404Z 18016KT 19/11 A2988 RMK A01 T01870106  RH  059%=      5-min Rain = 0
KCL2 211405Z 18019KT 19/11 A2988 RMK A01 T01880105  RH  058%=      5-min Rain = 0
KCL2 211406Z 18019G25KT 19/10 A2988 RMK A01 T01880103  RH  058%=      5-min Rain = 0
KCL2 211407Z 18019KT 19/10 A2988 RMK A01 T01880102  RH  057%=      5-min Rain = 0
KCL2 211408Z 18013G20KT 19/10 A2988 RMK A01 T01890103  RH  057%=      5-min Rain = 0
KCL2 211409Z 19018KT 19/11 A2988 RMK A01 T01900105  RH  058%=      5-min Rain = 0
KCL2 211410Z 19016KT 19/10 A2988 RMK A01 T01900104  RH  057%=      5-min Rain = 0
KCL2 211411Z 18018KT 19/11 A2988 RMK A01 T01910105  RH  057%=      5-min Rain = 0
KCL2 211412Z 19016KT 19/10 A2988 RMK A01 T01910104  RH  057%=      5-min Rain = 0
KCL2 211413Z 18015KT 19/11 A2988 RMK A01 T01920106  RH  057%=      5-min Rain = 0
KCL2 211414Z 19017G23KT 19/11 A2988 RMK A01 T01930105  RH  056%=      5-min Rain = 0
KCL2 211415Z 19015G21KT 19/11 A2988 RMK A01 T01940105  RH  057%=      5-min Rain = 0
KCL2 211416Z 19018KT 20/11 A2988 RMK A01 T01950106  RH  056%=      5-min Rain = 0
KCL2 211417Z 18016KT 20/11 A2988 RMK A01 T01950105  RH  056%=      5-min Rain = 0
KCL2 211418Z 18016G23KT 20/11 A2988 RMK A01 T01950107  RH  057%=      5-min Rain = 0
KCL2 211419Z 18019G24KT 20/11 A2988 RMK A01 T01950106  RH  056%=      5-min Rain = 0
KCL2 211420Z 19017G24KT 20/10 A2988 RMK A01 T01960104  RH  055%=      5-min Rain = 0
KCL2 211421Z 19018G24KT 20/11 A2988 RMK A01 T01960105  RH  056%=      5-min Rain = 0
KCL2 211422Z 18016KT 20/11 A2988 RMK A01 T01960105  RH  056%=      5-min Rain = 0
KCL2 211423Z 19016G23KT 20/11 A2988 RMK A01 T01970107  RH  056%=      5-min Rain = 0
KCL2 211424Z 19017KT 20/11 A2988 RMK A01 T01980106  RH  055%=      5-min Rain = 0
KCL2 211425Z 19018G24KT 20/11 A2988 RMK A01 T01980106  RH  055%=      5-min Rain = 0
KCL2 211426Z 19017G22KT 20/11 A2988 RMK A01 T01990105  RH  055%=      5-min Rain = 0
KCL2 211427Z 18017KT 20/11 A2988 RMK A01 T02000106  RH  055%=      5-min Rain = 0
KCL2 211428Z 19018KT 20/11 A2988 RMK A01 T02000107  RH  055%=      5-min Rain = 0
KCL2 211429Z 19018KT 20/11 A2988 RMK A01 T02000106  RH  055%=      5-min Rain = 0
KCL2 211430Z 19015KT 20/11 A2988 RMK A01 T02000108  RH  055%=      5-min Rain = 0
KCL2 211431Z 19021G26KT 20/11 A2988 RMK A01 T02010107  RH  055%=      5-min Rain = 0
KCL2 211432Z 19018G23KT 20/11 A2988 RMK A01 T02010106  RH  054%=      5-min Rain = 0
KCL2 211433Z 18021KT 20/11 A2988 RMK A01 T02010106  RH  054%=      5-min Rain = 0
KCL2 211434Z 18019G25KT 20/11 A2988 RMK A01 T02010105  RH  054%=      5-min Rain = 0
KCL2 211435Z 19020G26KT 20/11 A2988 RMK A01 T02010106  RH  054%=      5-min Rain = 0
KCL2 211436Z 19020KT 20/11 A2988 RMK A01 T02010105  RH  054%=      5-min Rain = 0
KCL2 211437Z 19020KT 20/11 A2987 RMK A01 T02010106  RH  054%=      5-min Rain = 0
KCL2 211438Z 18017KT 20/11 A2988 RMK A01 T02010107  RH  055%=      5-min Rain = 0
KCL2 211439Z 19020G26KT 20/11 A2987 RMK A01 T02020107  RH  054%=      5-min Rain = 0
KCL2 211440Z 18017KT 20/11 A2987 RMK A01 T02030107  RH  054%=      5-min Rain = 0
KCL2 211441Z 19018KT 20/11 A2987 RMK A01 T02040109  RH  054%=      5-min Rain = 0
KCL2 211442Z 18019KT 21/11 A2987 RMK A01 T02050108  RH  054%=      5-min Rain = 0
KCL2 211443Z 19020G28KT 21/11 A2988 RMK A01 T02050109  RH  054%=      5-min Rain = 0
KCL2 211444Z 18020G25KT 21/11 A2987 RMK A01 T02050108  RH  054%=      5-min Rain = 0
KCL2 211445Z 18017G22KT 21/11 A2988 RMK A01 T02050109  RH  054%=      5-min Rain = 0
KCL2 211446Z 19018G23KT 21/11 A2988 RMK A01 T02050111  RH  055%=      5-min Rain = 0
KCL2 211447Z 19018G25KT 21/11 A2987 RMK A01 T02050108  RH  054%=      5-min Rain = 0
KCL2 211448Z 19020G27KT 21/11 A2987 RMK A01 T02060110  RH  054%=      5-min Rain = 0
KCL2 211449Z 19023KT 21/11 A2987 RMK A01 T02060108  RH  053%=      5-min Rain = 0
KCL2 211450Z 19018KT 21/11 A2987 RMK A01 T02060109  RH  053%=      5-min Rain = 0
KCL2 211451Z 19016G21KT 21/11 A2988 RMK A01 T02070111  RH  054%=      5-min Rain = 0
KCL2 211452Z 19018G28KT 21/11 A2987 RMK A01 T02080112  RH  054%=      5-min Rain = 0
KCL2 211453Z 18018KT 21/11 A2987 RMK A01 T02090110  RH  053%=      5-min Rain = 0
KCL2 211454Z 18018G25KT 21/11 A2987 RMK A01 T02090110  RH  053%=      5-min Rain = 0
KCL2 211455Z 20021G26KT 21/11 A2987 RMK A01 T02080110  RH  053%=      5-min Rain = 0
KCL2 211456Z 19017G22KT 21/11 A2988 RMK A01 T02090111  RH  054%=      5-min Rain = 0
KCL2 211457Z 19019G24KT 21/11 A2987 RMK A01 T02100111  RH  053%=      5-min Rain = 0
KCL2 211458Z 20018KT 21/11 A2987 RMK A01 T02100111  RH  053%=      5-min Rain = 0
KCL2 211459Z 19021KT 21/11 A2987 RMK A01 T02110111  RH  053%=      5-min Rain = 0
KCL2 211500Z 19020G25KT 21/11 A2987 RMK A01 T02110111  RH  053%=      5-min Rain = 0
KCL2 211501Z 20018G23KT 21/11 A2987 RMK A01 T02110111  RH  053%=      5-min Rain = 0
KCL2 211502Z 19019G26KT 21/11 A2988 RMK A01 T02120113  RH  053%=      5-min Rain = 0
KCL2 211503Z 19019KT 21/11 A2988 RMK A01 T02130112  RH  053%=      5-min Rain = 0
KCL2 211504Z 20019KT 21/11 A2988 RMK A01 T02140112  RH  052%=      5-min Rain = 0
KCL2 211505Z 19019G25KT 21/11 A2988 RMK A01 T02140112  RH  052%=      5-min Rain = 0
KCL2 211506Z 20018KT 22/11 A2988 RMK A01 T02150112  RH  052%=      5-min Rain = 0
KCL2 211507Z 19016G23KT 22/12 A2988 RMK A01 T02160115  RH  052%=      5-min Rain = 0
KCL2 211508Z 19021G26KT 22/11 A2988 RMK A01 T02170114  RH  052%=      5-min Rain = 0
KCL2 211509Z 20019KT 22/11 A2988 RMK A01 T02170112  RH  051%=      5-min Rain = 0
KCL2 211510Z 20018KT 22/11 A2988 RMK A01 T02170114  RH  052%=      5-min Rain = 0
KCL2 211511Z 20019KT 22/11 A2988 RMK A01 T02170114  RH  052%=      5-min Rain = 0
KCL2 211512Z 19016G21KT 22/12 A2988 RMK A01 T02180115  RH  052%=      5-min Rain = 0
KCL2 211513Z 19018G24KT 22/11 A2988 RMK A01 T02190114  RH  051%=      5-min Rain = 0
KCL2 211514Z 19017G22KT 22/12 A2988 RMK A01 T02190115  RH  051%=      5-min Rain = 0
KCL2 211515Z 19015G20KT 22/12 A2988 RMK A01 T02200118  RH  052%=      5-min Rain = 0
KCL2 211516Z 19017G23KT 22/12 A2988 RMK A01 T02220116  RH  051%=      5-min Rain = 0
KCL2 211517Z 19016KT 22/12 A2988 RMK A01 T02220116  RH  051%=      5-min Rain = 0
KCL2 211518Z 20019G26KT 22/12 A2988 RMK A01 T02220116  RH  051%=      5-min Rain = 0
KCL2 211519Z 20017G23KT 22/11 A2988 RMK A01 T02240113  RH  050%=      5-min Rain = 0
KCL2 211520Z 19017KT 23/12 A2988 RMK A01 T02250116  RH  050%=      5-min Rain = 0
KCL2 211521Z 19016G21KT 23/12 A2988 RMK A01 T02260117  RH  050%=      5-min Rain = 0
KCL2 211522Z 19016KT 23/12 A2988 RMK A01 T02280118  RH  050%=      5-min Rain = 0
KCL2 211523Z 19017G23KT 23/12 A2988 RMK A01 T02290118  RH  050%=      5-min Rain = 0
KCL2 211524Z 19016G22KT 23/12 A2988 RMK A01 T02290119  RH  050%=      5-min Rain = 0
KCL2 211525Z 19019G24KT 23/12 A2988 RMK A01 T02300117  RH  049%=      5-min Rain = 0
KCL2 211526Z 19018KT 23/12 A2988 RMK A01 T02290117  RH  049%=      5-min Rain = 0
KCL2 211527Z 19018KT 23/12 A2988 RMK A01 T02280119  RH  050%=      5-min Rain = 0
KCL2 211528Z 19017KT 23/12 A2988 RMK A01 T02300118  RH  049%=      5-min Rain = 0
KCL2 211529Z 19017G22KT 23/12 A2988 RMK A01 T02310118  RH  049%=      5-min Rain = 0
KCL2 211530Z 19016KT 23/12 A2988 RMK A01 T02310118  RH  049%=      5-min Rain = 0
KCL2 211531Z 19018KT 23/12 A2988 RMK A01 T02340119  RH  049%=      5-min Rain = 0
KCL2 211532Z 19017G22KT 23/12 A2988 RMK A01 T02340119  RH  048%=      5-min Rain = 0
KCL2 211533Z 18018KT 24/12 A2988 RMK A01 T02350118  RH  048%=      5-min Rain = 0
KCL2 211534Z 19021KT 24/12 A2988 RMK A01 T02350117  RH  047%=      5-min Rain = 0
KCL2 211535Z 19020KT 24/12 A2988 RMK A01 T02350118  RH  048%=      5-min Rain = 0
KCL2 211536Z 20015KT 24/12 A2988 RMK A01 T02350119  RH  048%=      5-min Rain = 0
KCL2 211537Z 20014KT 24/12 A2988 RMK A01 T02380121  RH  048%=      5-min Rain = 0
KCL2 211538Z 20012G19KT 24/12 A2988 RMK A01 T02400124  RH  048%=      5-min Rain = 0
KCL2 211539Z 19016G21KT 24/12 A2988 RMK A01 T02420121  RH  047%=      5-min Rain = 0
KCL2 211540Z 19015KT 24/12 A2988 RMK A01 T02420121  RH  047%=      5-min Rain = 0
KCL2 211541Z 19016KT 24/12 A2988 RMK A01 T02430122  RH  047%=      5-min Rain = 0
KCL2 211542Z 18021KT 24/12 A2988 RMK A01 T02430120  RH  046%=      5-min Rain = 0
KCL2 211543Z 19019G24KT 24/12 A2988 RMK A01 T02410118  RH  046%=      5-min Rain = 0
KCL2 211544Z 19021KT 24/12 A2988 RMK A01 T02390117  RH  046%=      5-min Rain = 0
KCL2 211545Z 19021G27KT 24/12 A2988 RMK A01 T02370116  RH  047%=      5-min Rain = 0
KCL2 211546Z 19018G25KT 24/12 A2988 RMK A01 T02370118  RH  047%=      5-min Rain = 0
KCL2 211547Z 20021G26KT 24/12 A2988 RMK A01 T02370116  RH  047%=      5-min Rain = 0
KCL2 211548Z 20018G26KT 24/12 A2988 RMK A01 T02360115  RH  047%=      5-min Rain = 0
KCL2 211549Z 19019G24KT 24/12 A2988 RMK A01 T02370118  RH  047%=      5-min Rain = 0
KCL2 211550Z 20017G22KT 24/12 A2988 RMK A01 T02390119  RH  047%=      5-min Rain = 0
KCL2 211551Z 19018KT 24/12 A2988 RMK A01 T02410122  RH  047%=      5-min Rain = 0
KCL2 211552Z 19014G19KT 24/12 A2988 RMK A01 T02420123  RH  047%=      5-min Rain = 0
KCL2 211553Z 20015KT 24/12 A2988 RMK A01 T02430123  RH  047%=      5-min Rain = 0
KCL2 211554Z 19014KT 25/12 A2988 RMK A01 T02450124  RH  047%=      5-min Rain = 0
KCL2 211555Z 19020KT 25/12 A2988 RMK A01 T02450122  RH  046%=      5-min Rain = 0
KCL2 211556Z 19016KT 25/12 A2988 RMK A01 T02450122  RH  046%=      5-min Rain = 0
KCL2 211557Z 19019KT 24/12 A2988 RMK A01 T02440123  RH  047%=      5-min Rain = 0
KCL2 211558Z 19019KT 24/12 A2988 RMK A01 T02440124  RH  047%=      5-min Rain = 0
KCL2 211559Z 19020KT 24/12 A2988 RMK A01 T02420122  RH  047%=      5-min Rain = 0
KCL2 211600Z 18019KT 24/12 A2988 RMK A01 T02420121  RH  047%=      5-min Rain = 0
KCL2 211601Z 19020G25KT 24/12 A2988 RMK A01 T02420122  RH  047%=      5-min Rain = 0
KCL2 211602Z 19021KT 24/12 A2988 RMK A01 T02420121  RH  047%=      5-min Rain = 0
KCL2 211603Z 19020G25KT 24/12 A2988 RMK A01 T02410121  RH  047%=      5-min Rain = 0
KCL2 211604Z 18018G23KT 24/12 A2988 RMK A01 T02400122  RH  048%=      5-min Rain = 0
KCL2 211605Z 18020G25KT 24/12 A2988 RMK A01 T02410121  RH  047%=      5-min Rain = 0
KCL2 211606Z 19018G24KT 24/12 A2988 RMK A01 T02400121  RH  047%=      5-min Rain = 0
KCL2 211607Z 18020KT 24/12 A2988 RMK A01 T02410122  RH  047%=      5-min Rain = 0
KCL2 211608Z 18019KT 24/12 A2989 RMK A01 T02410121  RH  047%=      5-min Rain = 0
KCL2 211609Z 18019G24KT 24/12 A2988 RMK A01 T02410122  RH  047%=      5-min Rain = 0
KCL2 211610Z 19020KT 24/12 A2988 RMK A01 T02410122  RH  047%=      5-min Rain = 0
KCL2 211611Z 19019G24KT 24/12 A2988 RMK A01 T02410122  RH  047%=      5-min Rain = 0
KCL2 211612Z 19019G26KT 24/12 A2988 RMK A01 T02410122  RH  047%=      5-min Rain = 0
KCL2 211613Z 19022G30KT 24/12 A2988 RMK A01 T02420123  RH  047%=      5-min Rain = 0
KCL2 211614Z 19021G26KT 24/12 A2988 RMK A01 T02410118  RH  046%=      5-min Rain = 0
KCL2 211615Z 19017G23KT 24/12 A2989 RMK A01 T02400121  RH  047%=      5-min Rain = 0
KCL2 211616Z 19015KT 24/13 A2989 RMK A01 T02410125  RH  048%=      5-min Rain = 0
KCL2 211617Z 19017KT 25/13 A2989 RMK A01 T02450126  RH  047%=      5-min Rain = 0
KCL2 211618Z 20019G24KT 25/12 A2989 RMK A01 T02460124  RH  046%=      5-min Rain = 0
KCL2 211619Z 19020G25KT 24/12 A2989 RMK A01 T02430121  RH  046%=      5-min Rain = 0
KCL2 211620Z 19019KT 24/12 A2989 RMK A01 T02400121  RH  047%=      5-min Rain = 0
KCL2 211621Z 19014KT 24/13 A2989 RMK A01 T02420126  RH  048%=      5-min Rain = 0
KCL2 211622Z 20021KT 25/13 A2989 RMK A01 T02460127  RH  047%=      5-min Rain = 0
KCL2 211623Z 20017G23KT 25/12 A2989 RMK A01 T02460124  RH  046%=      5-min Rain = 0
KCL2 211624Z 20020G25KT 25/13 A2989 RMK A01 T02450125  RH  047%=      5-min Rain = 0
KCL2 211625Z 20021KT 24/12 A2989 RMK A01 T02430123  RH  047%=      5-min Rain = 0
KCL2 211626Z 19019KT 24/12 A2989 RMK A01 T02410123  RH  048%=      5-min Rain = 0
KCL2 211627Z 20019KT 24/12 A2989 RMK A01 T02420123  RH  047%=      5-min Rain = 0
KCL2 211628Z 20015KT 24/13 A2989 RMK A01 T02420125  RH  048%=      5-min Rain = 0
KCL2 211629Z 20016G21KT 24/13 A2989 RMK A01 T02430130  RH  049%=      5-min Rain = 0
KCL2 211630Z 19018G26KT 25/13 A2989 RMK A01 T02460127  RH  048%=      5-min Rain = 0
KCL2 211631Z 19021G26KT 24/12 A2989 RMK A01 T02440124  RH  047%=      5-min Rain = 0
KCL2 211632Z 20020G26KT 24/12 A2989 RMK A01 T02440123  RH  047%=      5-min Rain = 0
KCL2 211633Z 19021G30KT 25/12 A2989 RMK A01 T02450123  RH  047%=      5-min Rain = 0
KCL2 211634Z 20017KT 25/12 A2989 RMK A01 T02450123  RH  046%=      5-min Rain = 0
KCL2 211635Z 20016G22KT 25/13 A2989 RMK A01 T02480128  RH  047%=      5-min Rain = 0
KCL2 211636Z 20017KT 25/13 A2989 RMK A01 T02510130  RH  047%=      5-min Rain = 0
KCL2 211637Z 19015KT 25/13 A2989 RMK A01 T02520132  RH  048%=      5-min Rain = 0
KCL2 211638Z 19014G20KT 25/13 A2989 RMK A01 T02530134  RH  048%=      5-min Rain = 0
KCL2 211639Z 19020G25KT 25/13 A2989 RMK A01 T02540132  RH  047%=      5-min Rain = 0
KCL2 211640Z 20021G26KT 25/13 A2989 RMK A01 T02530128  RH  046%=      5-min Rain = 0
KCL2 211641Z 20020G26KT 25/13 A299 RMK A01 T02490125  RH  046%=      5-min Rain = 0
KCL2 211642Z 19020G28KT 25/13 A299 RMK A01 T02460125  RH  047%=      5-min Rain = 0
KCL2 211643Z 20021G28KT 25/13 A2989 RMK A01 T02460126  RH  047%=      5-min Rain = 0
KCL2 211644Z 20022G27KT 25/13 A299 RMK A01 T02480126  RH  047%=      5-min Rain = 0
KCL2 211645Z 20022G28KT 25/13 A299 RMK A01 T02490125  RH  046%=      5-min Rain = 0
KCL2 211646Z 20024G29KT 25/12 A299 RMK A01 T02470124  RH  046%=      5-min Rain = 0
KCL2 211647Z 19022KT 25/12 A299 RMK A01 T02450124  RH  047%=      5-min Rain = 0
KCL2 211648Z 20023KT 25/13 A2989 RMK A01 T02450125  RH  047%=      5-min Rain = 0
KCL2 211649Z 20020G27KT 24/13 A299 RMK A01 T02440126  RH  048%=      5-min Rain = 0
KCL2 211650Z 20020KT 25/13 A2989 RMK A01 T02450128  RH  048%=      5-min Rain = 0
KCL2 211651Z 21018KT 25/13 A299 RMK A01 T02470132  RH  049%=      5-min Rain = 0
KCL2 211652Z 20020KT 25/13 A299 RMK A01 T02500134  RH  048%=      5-min Rain = 0
KCL2 211653Z 20022G27KT 25/13 A299 RMK A01 T02510131  RH  047%=      5-min Rain = 0
KCL2 211654Z 20018G23KT 25/13 A299 RMK A01 T02510131  RH  047%=      5-min Rain = 0
KCL2 211655Z 21021G26KT 25/13 A299 RMK A01 T02510131  RH  047%=      5-min Rain = 0
KCL2 211656Z 20020KT 25/13 A299 RMK A01 T02500131  RH  048%=      5-min Rain = 0
KCL2 211657Z 20016KT 25/13 A299 RMK A01 T02490131  RH  048%=      5-min Rain = 0
KCL2 211658Z 21021KT 25/13 A299 RMK A01 T02490133  RH  048%=      5-min Rain = 0
KCL2 211659Z 19018KT 25/13 A299 RMK A01 T02500133  RH  048%=      5-min Rain = 0
KCL2 211700Z 19024G29KT 25/13 A299 RMK A01 T02510131  RH  047%=      5-min Rain = 0
KCL2 211701Z 19020G26KT 25/13 A299 RMK A01 T02500129  RH  047%=      5-min Rain = 0
KCL2 211702Z 19021KT 25/13 A299 RMK A01 T02490130  RH  048%=      5-min Rain = 0
KCL2 211703Z 19018G23KT 25/13 A299 RMK A01 T02490131  RH  048%=      5-min Rain = 0
KCL2 211704Z 20017G22KT 25/13 A299 RMK A01 T02500133  RH  048%=      5-min Rain = 0
KCL2 211705Z 20019KT 25/13 A299 RMK A01 T02510133  RH  048%=      5-min Rain = 0
KCL2 211706Z 19020KT 25/13 A299 RMK A01 T02510132  RH  048%=      5-min Rain = 0
KCL2 211707Z 19020G25KT 25/13 A299 RMK A01 T02500132  RH  048%=      5-min Rain = 0
KCL2 211708Z 20021KT 25/13 A2989 RMK A01 T02490131  RH  048%=      5-min Rain = 0
KCL2 211709Z 20016G21KT 25/13 A2989 RMK A01 T02490133  RH  049%=      5-min Rain = 0
KCL2 211710Z 20014KT 25/14 A299 RMK A01 T02510136  RH  049%=      5-min Rain = 0
KCL2 211711Z 19014G19KT 25/14 A299 RMK A01 T02530138  RH  049%=      5-min Rain = 0
KCL2 211712Z 19016G22KT 26/14 A299 RMK A01 T02550138  RH  048%=      5-min Rain = 0
KCL2 211713Z 19017G22KT 26/14 A2989 RMK A01 T02570139  RH  048%=      5-min Rain = 0
KCL2 211714Z 19019G25KT 26/14 A299 RMK A01 T02570138  RH  048%=      5-min Rain = 0
KCL2 211715Z 20019G24KT 26/14 A299 RMK A01 T02570137  RH  047%=      5-min Rain = 0
KCL2 211716Z 20018KT 26/14 A2989 RMK A01 T02550136  RH  048%=      5-min Rain = 0
KCL2 211717Z 21018G26KT 26/14 A299 RMK A01 T02550137  RH  048%=      5-min Rain = 0
KCL2 211718Z 20016KT 25/14 A2989 RMK A01 T02540136  RH  048%=      5-min Rain = 0
KCL2 211719Z 19015KT 26/14 A2989 RMK A01 T02550140  RH  049%=      5-min Rain = 0
KCL2 211720Z 20020KT 26/14 A2989 RMK A01 T02570139  RH  048%=      5-min Rain = 0
KCL2 211721Z 20025KT 26/14 A2989 RMK A01 T02570135  RH  047%=      5-min Rain = 0
KCL2 211722Z 19022G28KT 26/14 A2989 RMK A01 T02570135  RH  047%=      5-min Rain = 0
KCL2 211723Z 20021KT 26/14 A2989 RMK A01 T02560136  RH  047%=      5-min Rain = 0
KCL2 211724Z 20022G28KT 26/14 A2989 RMK A01 T02550136  RH  048%=      5-min Rain = 0
KCL2 211725Z 20018KT 25/14 A2989 RMK A01 T02540135  RH  048%=      5-min Rain = 0
KCL2 211726Z 19019KT 25/14 A2989 RMK A01 T02530135  RH  048%=      5-min Rain = 0
KCL2 211727Z 19019KT 25/14 A2989 RMK A01 T02540139  RH  049%=      5-min Rain = 0
KCL2 211728Z 19020KT 26/14 A2989 RMK A01 T02560138  RH  048%=      5-min Rain = 0
KCL2 211729Z 18016G21KT 26/14 A2989 RMK A01 T02560139  RH  048%=      5-min Rain = 0
KCL2 211730Z 18019KT 26/14 A2989 RMK A01 T02580141  RH  048%=      5-min Rain = 0
KCL2 211731Z 19015G22KT 26/14 A2989 RMK A01 T02620144  RH  048%=      5-min Rain = 0
KCL2 211732Z 19017G22KT 27/14 A2989 RMK A01 T02650139  RH  046%=      5-min Rain = 0
KCL2 211733Z 18019G24KT 27/14 A2989 RMK A01 T02650141  RH  046%=      5-min Rain = 0
KCL2 211734Z 19021G26KT 27/14 A2989 RMK A01 T02650136  RH  045%=      5-min Rain = 0
KCL2 211735Z 19021KT 26/13 A2989 RMK A01 T02630134  RH  045%=      5-min Rain = 0
KCL2 211736Z 19019G24KT 26/14 A2989 RMK A01 T02620135  RH  045%=      5-min Rain = 0
KCL2 211737Z 19025KT 26/14 A2989 RMK A01 T02620135  RH  045%=      5-min Rain = 0
KCL2 211738Z 19017G22KT 26/14 A2989 RMK A01 T02630136  RH  045%=      5-min Rain = 0
KCL2 211739Z 19018KT 27/14 A2989 RMK A01 T02650139  RH  046%=      5-min Rain = 0
KCL2 211740Z 19020KT 27/14 A2989 RMK A01 T02660136  RH  045%=      5-min Rain = 0
KCL2 211741Z 20020KT 27/14 A2989 RMK A01 T02660138  RH  045%=      5-min Rain = 0
KCL2 211742Z 20019G26KT 27/14 A2989 RMK A01 T02650138  RH  046%=      5-min Rain = 0
KCL2 211743Z 19016G21KT 27/14 A2989 RMK A01 T02650142  RH  047%=      5-min Rain = 0
KCL2 211744Z 18016KT 27/14 A2989 RMK A01 T02670143  RH  046%=      5-min Rain = 0
KCL2 211745Z 19016G21KT 27/14 A2989 RMK A01 T02690144  RH  046%=      5-min Rain = 0
KCL2 211746Z 19017G24KT 27/15 A2989 RMK A01 T02690145  RH  046%=      5-min Rain = 0
KCL2 211747Z 19020KT 27/14 A2989 RMK A01 T02690142  RH  045%=      5-min Rain = 0
KCL2 211748Z 19021KT 27/14 A2989 RMK A01 T02680141  RH  046%=      5-min Rain = 0
KCL2 211749Z 20020G25KT 27/14 A2988 RMK A01 T02660139  RH  045%=      5-min Rain = 0
KCL2 211750Z 20019G26KT 27/14 A2988 RMK A01 T02660139  RH  046%=      5-min Rain = 0
KCL2 211751Z 19018G23KT 27/14 A2989 RMK A01 T02670136  RH  044%=      5-min Rain = 0
KCL2 211752Z 21019KT 27/14 A2989 RMK A01 T02690139  RH  045%=      5-min Rain = 0
KCL2 211753Z 21023KT 27/14 A2988 RMK A01 T02720137  RH  044%=      5-min Rain = 0
KCL2 211754Z 20023G28KT 27/14 A2989 RMK A01 T02720136  RH  043%=      5-min Rain = 0
KCL2 211755Z 19021G27KT 27/13 A2989 RMK A01 T02710133  RH  042%=      5-min Rain = 0
KCL2 211756Z 19024KT 27/13 A2989 RMK A01 T02690132  RH  043%=      5-min Rain = 0
KCL2 211757Z 20021KT 27/13 A2989 RMK A01 T02670134  RH  044%=      5-min Rain = 0
KCL2 211758Z 21019G24KT 27/14 A2989 RMK A01 T02680137  RH  045%=      5-min Rain = 0
KCL2 211759Z 21020KT 27/14 A2989 RMK A01 T02680138  RH  045%=      5-min Rain = 0
KCL2 211800Z 20019KT 27/14 A2989 RMK A01 T02670137  RH  045%=      5-min Rain = 0
KCL2 211801Z 21019KT 27/14 A2989 RMK A01 T02670138  RH  045%=      5-min Rain = 0
KCL2 211802Z 20017G24KT 27/14 A2989 RMK A01 T02670141  RH  046%=      5-min Rain = 0
KCL2 211803Z 20018KT 27/14 A2989 RMK A01 T02690143  RH  046%=      5-min Rain = 0
KCL2 211804Z 20023G28KT 27/14 A2989 RMK A01 T02700138  RH  044%=      5-min Rain = 0
KCL2 211805Z 20018G23KT 27/14 A2989 RMK A01 T02700136  RH  044%=      5-min Rain = 0
KCL2 211806Z 20017G22KT 27/14 A2989 RMK A01 T02690138  RH  045%=      5-min Rain = 0
KCL2 211807Z 20018KT 27/14 A2989 RMK A01 T02710140  RH  045%=      5-min Rain = 0
KCL2 211808Z 19018KT 27/14 A2989 RMK A01 T02710138  RH  044%=      5-min Rain = 0
KCL2 211809Z 20019KT 27/14 A2989 RMK A01 T02700139  RH  044%=      5-min Rain = 0
KCL2 211810Z 19018KT 27/14 A2989 RMK A01 T02710140  RH  045%=      5-min Rain = 0
KCL2 211811Z 19014KT 27/15 A2989 RMK A01 T02730145  RH  045%=      5-min Rain = 0
KCL2 211812Z 18013G18KT 28/15 A2989 RMK A01 T02760147  RH  045%=      5-min Rain = 0
KCL2 211813Z 19016KT 28/15 A2989 RMK A01 T02770148  RH  045%=      5-min Rain = 0
KCL2 211814Z 18017G22KT 28/15 A2988 RMK A01 T02760146  RH  045%=      5-min Rain = 0
KCL2 211815Z 19014KT 27/15 A2989 RMK A01 T02740148  RH  046%=      5-min Rain = 0
KCL2 211816Z 18018G23KT 28/15 A2989 RMK A01 T02770149  RH  046%=      5-min Rain = 0
KCL2 211817Z 18020G26KT 28/14 A2988 RMK A01 T02770144  RH  044%=      5-min Rain = 0
KCL2 211818Z 18022KT 28/14 A2988 RMK A01 T02760138  RH  043%=      5-min Rain = 0
KCL2 211819Z 19018G26KT 27/14 A2989 RMK A01 T02730141  RH  044%=      5-min Rain = 0
KCL2 211820Z 20021KT 28/14 A2989 RMK A01 T02750139  RH  043%=      5-min Rain = 0
KCL2 211821Z 20019G24KT 28/14 A2988 RMK A01 T02750136  RH  042%=      5-min Rain = 0
KCL2 211822Z 20019KT 27/14 A2988 RMK A01 T02730137  RH  043%=      5-min Rain = 0
KCL2 211823Z 21019KT 27/14 A2988 RMK A01 T02720139  RH  044%=      5-min Rain = 0
KCL2 211824Z 19018G23KT 27/14 A2989 RMK A01 T02730143  RH  045%=      5-min Rain = 0
KCL2 211825Z 19021G27KT 28/14 A2988 RMK A01 T02750141  RH  044%=      5-min Rain = 0
KCL2 211826Z 19019G25KT 28/14 A2988 RMK A01 T02750141  RH  044%=      5-min Rain = 0
KCL2 211827Z 19021G27KT 28/14 A2988 RMK A01 T02750140  RH  043%=      5-min Rain = 0
KCL2 211828Z 19016G21KT 27/14 A2988 RMK A01 T02740139  RH  043%=      5-min Rain = 0
KCL2 211829Z 19024KT 27/14 A2988 RMK A01 T02740140  RH  044%=      5-min Rain = 0
KCL2 211830Z 19018G23KT 28/14 A2988 RMK A01 T02750138  RH  043%=      5-min Rain = 0
KCL2 211831Z 19019G25KT 28/14 A2988 RMK A01 T02750139  RH  043%=      5-min Rain = 0
KCL2 211832Z 19015G20KT 28/14 A2988 RMK A01 T02750143  RH  044%=      5-min Rain = 0
KCL2 211833Z 19020G25KT 28/14 A2988 RMK A01 T02780141  RH  043%=      5-min Rain = 0
KCL2 211834Z 19020KT 28/14 A2988 RMK A01 T02780138  RH  042%=      5-min Rain = 0
KCL2 211835Z 20015KT 28/14 A2988 RMK A01 T02770142  RH  044%=      5-min Rain = 0
KCL2 211836Z 21016KT 28/15 A2988 RMK A01 T02770145  RH  044%=      5-min Rain = 0
KCL2 211837Z 20015KT 28/15 A2988 RMK A01 T02790145  RH  044%=      5-min Rain = 0
KCL2 211838Z 18015KT 28/15 A2988 RMK A01 T02800148  RH  045%=      5-min Rain = 0
KCL2 211839Z 18016G22KT 28/15 A2988 RMK A01 T02800147  RH  044%=      5-min Rain = 0
KCL2 211840Z 18017KT 28/15 A2988 RMK A01 T02790145  RH  044%=      5-min Rain = 0
KCL2 211841Z 18017KT 28/15 A2988 RMK A01 T02790146  RH  044%=      5-min Rain = 0
KCL2 211842Z 19017KT 28/15 A2988 RMK A01 T02790146  RH  044%=      5-min Rain = 0
KCL2 211843Z 20019G25KT 28/15 A2988 RMK A01 T02800145  RH  044%=      5-min Rain = 0
KCL2 211844Z 18015KT 28/15 A2988 RMK A01 T02800147  RH  044%=      5-min Rain = 0
KCL2 211845Z 18021KT 28/15 A2988 RMK A01 T02820145  RH  043%=      5-min Rain = 0
KCL2 211846Z 20020G25KT 28/15 A2988 RMK A01 T02820146  RH  043%=      5-min Rain = 0
KCL2 211847Z 19020G25KT 28/14 A2988 RMK A01 T02820143  RH  042%=      5-min Rain = 0
KCL2 211848Z 20022G28KT 28/14 A2988 RMK A01 T02810143  RH  043%=      5-min Rain = 0
KCL2 211849Z 19021KT 28/14 A2988 RMK A01 T02800140  RH  042%=      5-min Rain = 0
KCL2 211850Z 20018KT 28/14 A2988 RMK A01 T02780141  RH  043%=      5-min Rain = 0
KCL2 211851Z 20017KT 28/14 A2988 RMK A01 T02780141  RH  043%=      5-min Rain = 0
KCL2 211852Z 21016KT 28/15 A2988 RMK A01 T02770146  RH  045%=      5-min Rain = 0
KCL2 211853Z 19011G16KT 28/15 A2988 RMK A01 T02810153  RH  046%=      5-min Rain = 0
KCL2 211854Z 19011KT 29/16 A2988 RMK A01 T02860155  RH  045%=      5-min Rain = 0
KCL2 211855Z 17016G23KT 29/15 A2988 RMK A01 T02890153  RH  044%=      5-min Rain = 0
KCL2 211856Z 18017KT 29/15 A2988 RMK A01 T02860146  RH  042%=      5-min Rain = 0
KCL2 211857Z 18014G19KT 28/15 A2988 RMK A01 T02830147  RH  044%=      5-min Rain = 0
KCL2 211858Z 20015KT 28/15 A2988 RMK A01 T02820151  RH  045%=      5-min Rain = 0
KCL2 211859Z 19013KT 29/15 A2988 RMK A01 T02860154  RH  045%=      5-min Rain = 0
KCL2 211900Z 20012G17KT 29/15 A2988 RMK A01 T02890153  RH  044%=      5-min Rain = 0
KCL2 211901Z 19017G24KT 29/15 A2988 RMK A01 T02900150  RH  043%=      5-min Rain = 0
KCL2 211902Z 20015KT 29/15 A2988 RMK A01 T02890151  RH  043%=      5-min Rain = 0
KCL2 211903Z 20015G21KT 29/15 A2988 RMK A01 T02890146  RH  042%=      5-min Rain = 0
KCL2 211904Z 20018KT 29/15 A2988 RMK A01 T02880146  RH  042%=      5-min Rain = 0
KCL2 211905Z 20020KT 29/14 A2988 RMK A01 T02890144  RH  041%=      5-min Rain = 0
KCL2 211906Z 20018KT 29/15 A2988 RMK A01 T02850147  RH  043%=      5-min Rain = 0
KCL2 211907Z 20017G23KT 28/15 A2988 RMK A01 T02830147  RH  043%=      5-min Rain = 0
KCL2 211908Z 21016G22KT 28/15 A2988 RMK A01 T02820149  RH  044%=      5-min Rain = 0
KCL2 211909Z 19015KT 28/15 A2988 RMK A01 T02840152  RH  045%=      5-min Rain = 0
KCL2 211910Z 19012G19KT 29/15 A2988 RMK A01 T02850154  RH  045%=      5-min Rain = 0
KCL2 211911Z 20018KT 29/15 A2988 RMK A01 T02890152  RH  043%=      5-min Rain = 0
KCL2 211912Z 20011G16KT 29/15 A2988 RMK A01 T02890149  RH  042%=      5-min Rain = 0
KCL2 211913Z 20016G22KT 29/15 A2988 RMK A01 T02890151  RH  043%=      5-min Rain = 0
KCL2 211914Z 20018G24KT 29/15 A2988 RMK A01 T02900148  RH  042%=      5-min Rain = 0
KCL2 211915Z 19020G25KT 29/15 A2988 RMK A01 T02890146  RH  042%=      5-min Rain = 0
KCL2 211916Z 20021KT 29/14 A2988 RMK A01 T02870143  RH  041%=      5-min Rain = 0
KCL2 211917Z 21020G26KT 29/14 A2988 RMK A01 T02860144  RH  042%=      5-min Rain = 0
KCL2 211918Z 22021KT 29/14 A2988 RMK A01 T02860144  RH  042%=      5-min Rain = 0
KCL2 211919Z 22020KT 29/14 A2988 RMK A01 T02850143  RH  042%=      5-min Rain = 0
KCL2 211920Z 21020KT 28/15 A2988 RMK A01 T02840147  RH  043%=      5-min Rain = 0
KCL2 211921Z 18015G21KT 29/15 A2988 RMK A01 T02860151  RH  044%=      5-min Rain = 0
KCL2 211922Z 18016G21KT 29/15 A2988 RMK A01 T02890147  RH  042%=      5-min Rain = 0
KCL2 211923Z 19017KT 29/15 A2988 RMK A01 T02890148  RH  042%=      5-min Rain = 0
KCL2 211924Z 19015G20KT 29/15 A2988 RMK A01 T02900150  RH  042%=      5-min Rain = 0
KCL2 211925Z 19016G21KT 29/15 A2988 RMK A01 T02910148  RH  042%=      5-min Rain = 0
KCL2 211926Z 20012KT 29/15 A2988 RMK A01 T02890151  RH  043%=      5-min Rain = 0
KCL2 211927Z 20012KT 29/16 A2988 RMK A01 T02910156  RH  044%=      5-min Rain = 0
KCL2 211928Z 20011KT 30/16 A2988 RMK A01 T02950158  RH  044%=      5-min Rain = 0
KCL2 211929Z 18010KT 30/16 A2988 RMK A01 T02960158  RH  043%=      5-min Rain = 0
KCL2 211930Z 19012G17KT 30/16 A2988 RMK A01 T02970159  RH  043%=      5-min Rain = 0
KCL2 211931Z 19011KT 30/15 A2987 RMK A01 T02970154  RH  042%=      5-min Rain = 0
KCL2 211932Z 18014G19KT 30/16 A2987 RMK A01 T02960156  RH  043%=      5-min Rain = 0
KCL2 211933Z 18019KT 30/15 A2987 RMK A01 T02960152  RH  041%=      5-min Rain = 0
KCL2 211934Z 19016KT 29/15 A2987 RMK A01 T02930148  RH  041%=      5-min Rain = 0
KCL2 211935Z 18014KT 29/15 A2987 RMK A01 T02910153  RH  043%=      5-min Rain = 0
KCL2 211936Z 19015KT 29/15 A2987 RMK A01 T02920152  RH  043%=      5-min Rain = 0
KCL2 211937Z 19019KT 29/15 A2987 RMK A01 T02920148  RH  042%=      5-min Rain = 0
KCL2 211938Z 19019KT 29/15 A2987 RMK A01 T02900145  RH  041%=      5-min Rain = 0
KCL2 211939Z 21016KT 29/14 A2987 RMK A01 T02900144  RH  041%=      5-min Rain = 0
KCL2 211940Z 20014KT 29/15 A2987 RMK A01 T02890149  RH  042%=      5-min Rain = 0
KCL2 211941Z 18020G31KT 29/15 A2987 RMK A01 T02900149  RH  042%=      5-min Rain = 0
KCL2 211942Z 19020G26KT 29/15 A2987 RMK A01 T02910146  RH  041%=      5-min Rain = 0
KCL2 211943Z 20018KT 29/15 A2987 RMK A01 T02910145  RH  041%=      5-min Rain = 0
KCL2 211944Z 19017G24KT 29/15 A2987 RMK A01 T02920147  RH  041%=      5-min Rain = 0
KCL2 211945Z 19017G22KT 29/14 A2987 RMK A01 T02920144  RH  040%=      5-min Rain = 0
KCL2 211946Z 19018KT 29/14 A2987 RMK A01 T02920143  RH  040%=      5-min Rain = 0
KCL2 211947Z 19016KT 29/15 A2987 RMK A01 T02920145  RH  041%=      5-min Rain = 0
KCL2 211948Z 20016G21KT 29/15 A2987 RMK A01 T02930146  RH  041%=      5-min Rain = 0
KCL2 211949Z 20016KT 29/14 A2987 RMK A01 T02940143  RH  040%=      5-min Rain = 0
KCL2 211950Z 20014G19KT 29/14 A2987 RMK A01 T02930143  RH  040%=      5-min Rain = 0
KCL2 211951Z 19013G19KT 29/15 A2987 RMK A01 T02930148  RH  041%=      5-min Rain = 0
KCL2 211952Z 19016G23KT 30/15 A2987 RMK A01 T02950146  RH  040%=      5-min Rain = 0
KCL2 211953Z 20017G23KT 30/14 A2987 RMK A01 T02950144  RH  040%=      5-min Rain = 0
KCL2 211954Z 20017KT 29/15 A2987 RMK A01 T02930147  RH  041%=      5-min Rain = 0
KCL2 211955Z 21017KT 29/15 A2987 RMK A01 T02930147  RH  041%=      5-min Rain = 0
KCL2 211956Z 21018KT 29/15 A2987 RMK A01 T02940151  RH  042%=      5-min Rain = 0
KCL2 211957Z 21018KT 29/15 A2987 RMK A01 T02940146  RH  041%=      5-min Rain = 0
KCL2 211958Z 20015KT 29/15 A2987 RMK A01 T02920146  RH  041%=      5-min Rain = 0
KCL2 211959Z 19017G22KT 29/15 A2987 RMK A01 T02920145  RH  041%=      5-min Rain = 0
KCL2 212000Z 18017G22KT 29/14 A2987 RMK A01 T02930143  RH  040%=      5-min Rain = 0
KCL2 212001Z 19017KT 29/14 A2987 RMK A01 T02930142  RH  040%=      5-min Rain = 0
KCL2 212002Z 19021G27KT 30/14 A2987 RMK A01 T02950142  RH  039%=      5-min Rain = 0
KCL2 212003Z 20024KT 30/14 A2986 RMK A01 T02950135  RH  037%=      5-min Rain = 0
KCL2 212004Z 20020KT 29/13 A2987 RMK A01 T02930134  RH  038%=      5-min Rain = 0
KCL2 212005Z 20019G26KT 29/13 A2987 RMK A01 T02920134  RH  038%=      5-min Rain = 0
KCL2 212006Z 19016G21KT 29/14 A2987 RMK A01 T02930135  RH  038%=      5-min Rain = 0
KCL2 212007Z 20018G24KT 30/14 A2987 RMK A01 T02950136  RH  038%=      5-min Rain = 0
KCL2 212008Z 19015KT 29/13 A2987 RMK A01 T02940131  RH  037%=      5-min Rain = 0
KCL2 212009Z 20013KT 29/13 A2987 RMK A01 T02930134  RH  038%=      5-min Rain = 0
KCL2 212010Z 20012KT 29/14 A2987 RMK A01 T02940137  RH  038%=      5-min Rain = 0
KCL2 212011Z 21011KT 30/14 A2987 RMK A01 T02970143  RH  039%=      5-min Rain = 0
KCL2 212012Z 22015KT 30/14 A2987 RMK A01 T03000144  RH  039%=      5-min Rain = 0
KCL2 212013Z 20015KT 30/14 A2987 RMK A01 T03000135  RH  036%=      5-min Rain = 0
KCL2 212014Z 21014KT 30/14 A2987 RMK A01 T02980139  RH  038%=      5-min Rain = 0
KCL2 212015Z 21015KT 30/15 A2987 RMK A01 T02980146  RH  040%=      5-min Rain = 0
KCL2 212016Z 18016KT 30/15 A2987 RMK A01 T02990146  RH  039%=      5-min Rain = 0
KCL2 212017Z 19018KT 30/14 A2987 RMK A01 T03000143  RH  038%=      5-min Rain = 0
KCL2 212018Z 19017G22KT 30/14 A2987 RMK A01 T02980142  RH  039%=      5-min Rain = 0
KCL2 212019Z 18014G19KT 30/14 A2987 RMK A01 T02980143  RH  039%=      5-min Rain = 0
KCL2 212020Z 19016G23KT 30/14 A2987 RMK A01 T02990144  RH  039%=      5-min Rain = 0
KCL2 212021Z 19019G24KT 30/14 A2987 RMK A01 T03010141  RH  038%=      5-min Rain = 0
KCL2 212022Z 21013G18KT 30/14 A2987 RMK A01 T03000140  RH  038%=      5-min Rain = 0
KCL2 212023Z 21013KT 30/15 A2987 RMK A01 T02990147  RH  040%=      5-min Rain = 0
KCL2 212024Z 19015G20KT 30/15 A2987 RMK A01 T03020148  RH  039%=      5-min Rain = 0
KCL2 212025Z 19015KT 30/15 A2987 RMK A01 T03020150  RH  040%=      5-min Rain = 0
KCL2 212026Z 18015KT 30/15 A2987 RMK A01 T03020147  RH  039%=      5-min Rain = 0
KCL2 212027Z 19013KT 30/15 A2987 RMK A01 T02990150  RH  040%=      5-min Rain = 0
KCL2 212028Z 18016G21KT 30/15 A2987 RMK A01 T02990151  RH  041%=      5-min Rain = 0
KCL2 212029Z 18018G23KT 30/15 A2986 RMK A01 T02990146  RH  039%=      5-min Rain = 0
KCL2 212030Z 18017KT 30/15 A2986 RMK A01 T02980148  RH  040%=      5-min Rain = 0
KCL2 212031Z 17017KT 30/15 A2986 RMK A01 T02970147  RH  040%=      5-min Rain = 0
KCL2 212032Z 17016G21KT 30/15 A2986 RMK A01 T02970147  RH  040%=      5-min Rain = 0
KCL2 212033Z 18016KT 30/15 A2986 RMK A01 T02960146  RH  040%=      5-min Rain = 0
KCL2 212034Z 18011KT 30/15 A2986 RMK A01 T02970152  RH  041%=      5-min Rain = 0
KCL2 212035Z 19015G20KT 30/15 A2986 RMK A01 T03000153  RH  041%=      5-min Rain = 0
KCL2 212036Z 20015KT 30/15 A2986 RMK A01 T03020148  RH  039%=      5-min Rain = 0
KCL2 212037Z 18013G18KT 30/15 A2986 RMK A01 T03010153  RH  041%=      5-min Rain = 0
KCL2 212038Z 18017G24KT 30/15 A2986 RMK A01 T03020150  RH  040%=      5-min Rain = 0
KCL2 212039Z 18019KT 30/15 A2986 RMK A01 T03010147  RH  039%=      5-min Rain = 0
KCL2 212040Z 18021KT 30/15 A2986 RMK A01 T02990145  RH  039%=      5-min Rain = 0
KCL2 212041Z 19018G24KT 30/14 A2986 RMK A01 T02980144  RH  039%=      5-min Rain = 0
KCL2 212042Z 19020KT 30/14 A2986 RMK A01 T03000136  RH  037%=      5-min Rain = 0
KCL2 212043Z 18019KT 30/14 A2986 RMK A01 T03000135  RH  037%=      5-min Rain = 0
KCL2 212044Z 19018KT 30/14 A2986 RMK A01 T03000135  RH  036%=      5-min Rain = 0
KCL2 212045Z 20019KT 30/14 A2986 RMK A01 T03000136  RH  037%=      5-min Rain = 0
KCL2 212046Z 19014KT 30/14 A2986 RMK A01 T02990138  RH  037%=      5-min Rain = 0
KCL2 212047Z 20016G21KT 30/14 A2986 RMK A01 T03000142  RH  038%=      5-min Rain = 0
KCL2 212048Z 20016KT 30/15 A2985 RMK A01 T03010145  RH  039%=      5-min Rain = 0
KCL2 212049Z 20014KT 30/15 A2985 RMK A01 T03010145  RH  039%=      5-min Rain = 0
KCL2 212050Z 20013KT 30/14 A2986 RMK A01 T03030142  RH  038%=      5-min Rain = 0
KCL2 212051Z 20015KT 31/14 A2986 RMK A01 T03050138  RH  036%=      5-min Rain = 0
KCL2 212052Z 20018KT 31/14 A2985 RMK A01 T03060136  RH  035%=      5-min Rain = 0
KCL2 212053Z 20017KT 31/14 A2985 RMK A01 T03060138  RH  036%=      5-min Rain = 0
KCL2 212054Z 20014G21KT 30/14 A2985 RMK A01 T03040135  RH  036%=      5-min Rain = 0
KCL2 212055Z 21020KT 30/13 A2985 RMK A01 T03040132  RH  035%=      5-min Rain = 0
KCL2 212056Z 21020KT 30/13 A2985 RMK A01 T03020131  RH  035%=      5-min Rain = 0
KCL2 212057Z 20017G24KT 30/13 A2985 RMK A01 T02990132  RH  036%=      5-min Rain = 0
KCL2 212058Z 20018G24KT 30/14 A2985 RMK A01 T02990137  RH  037%=      5-min Rain = 0
KCL2 212059Z 20016G21KT 30/14 A2985 RMK A01 T03010136  RH  036%=      5-min Rain = 0
KCL2 212100Z 20016KT 30/14 A2985 RMK A01 T03010137  RH  037%=      5-min Rain = 0
KCL2 212101Z 19018KT 30/14 A2985 RMK A01 T03020137  RH  037%=      5-min Rain = 0
KCL2 212102Z 19017KT 30/13 A2985 RMK A01 T03020134  RH  036%=      5-min Rain = 0
KCL2 212103Z 20017G22KT 30/13 A2985 RMK A01 T03010132  RH  036%=      5-min Rain = 0
KCL2 212104Z 20016G21KT 30/13 A2985 RMK A01 T03000132  RH  036%=      5-min Rain = 0
KCL2 212105Z 19014G19KT 30/13 A2985 RMK A01 T03000134  RH  036%=      5-min Rain = 0
KCL2 212106Z 19014G21KT 30/14 A2985 RMK A01 T03010135  RH  036%=      5-min Rain = 0
KCL2 212107Z 20016G23KT 30/14 A2985 RMK A01 T03020139  RH  037%=      5-min Rain = 0
KCL2 212108Z 19017G22KT 30/13 A2985 RMK A01 T03040134  RH  035%=      5-min Rain = 0
KCL2 212109Z 20015KT 30/14 A2985 RMK A01 T03030135  RH  036%=      5-min Rain = 0
KCL2 212110Z 21017KT 30/14 A2985 RMK A01 T03030136  RH  036%=      5-min Rain = 0
KCL2 212111Z 19011KT 30/14 A2985 RMK A01 T03030138  RH  036%=      5-min Rain = 0
KCL2 212112Z 19015KT 30/14 A2985 RMK A01 T03040144  RH  038%=      5-min Rain = 0
KCL2 212113Z 17015G22KT 31/15 A2985 RMK A01 T03050146  RH  038%=      5-min Rain = 0
KCL2 212114Z 18017G22KT 30/14 A2985 RMK A01 T03040143  RH  038%=      5-min Rain = 0
KCL2 212115Z 18019KT 30/14 A2985 RMK A01 T03010144  RH  038%=      5-min Rain = 0
KCL2 212116Z 18019KT 30/14 A2985 RMK A01 T03000140  RH  038%=      5-min Rain = 0
KCL2 212117Z 19015G20KT 30/14 A2985 RMK A01 T02990143  RH  039%=      5-min Rain = 0
KCL2 212118Z 20015G20KT 30/14 A2985 RMK A01 T03000141  RH  038%=      5-min Rain = 0
KCL2 212119Z 19018KT 30/14 A2985 RMK A01 T03010138  RH  037%=      5-min Rain = 0
KCL2 212120Z 19015G21KT 30/13 A2985 RMK A01 T03020133  RH  036%=      5-min Rain = 0
KCL2 212121Z 19015KT 30/14 A2985 RMK A01 T03020136  RH  036%=      5-min Rain = 0
KCL2 212122Z 18014KT 30/13 A2985 RMK A01 T03020133  RH  036%=      5-min Rain = 0
KCL2 212123Z 18015KT 30/13 A2985 RMK A01 T03020133  RH  036%=      5-min Rain = 0
KCL2 212124Z 19015KT 30/14 A2985 RMK A01 T03020135  RH  036%=      5-min Rain = 0
KCL2 212125Z 17013KT 30/14 A2985 RMK A01 T03020141  RH  037%=      5-min Rain = 0
KCL2 212126Z 18013KT 30/14 A2985 RMK A01 T03030140  RH  037%=      5-min Rain = 0
KCL2 212127Z 18011KT 30/15 A2985 RMK A01 T03020146  RH  039%=      5-min Rain = 0
KCL2 212128Z 19012KT 30/15 A2985 RMK A01 T03040148  RH  039%=      5-min Rain = 0
KCL2 212129Z 18017KT 31/15 A2985 RMK A01 T03050146  RH  038%=      5-min Rain = 0
KCL2 212130Z 19016KT 30/15 A2985 RMK A01 T03030146  RH  038%=      5-min Rain = 0
KCL2 212131Z 18016KT 30/15 A2985 RMK A01 T03010149  RH  040%=      5-min Rain = 0
KCL2 212132Z 19018KT 30/15 A2984 RMK A01 T03010150  RH  040%=      5-min Rain = 0
KCL2 212133Z 17014G20KT 30/15 A2985 RMK A01 T03000151  RH  041%=      5-min Rain = 0
KCL2 212134Z 17016KT 30/15 A2984 RMK A01 T03000149  RH  040%=      5-min Rain = 0
KCL2 212135Z 18017KT 30/15 A2984 RMK A01 T02990147  RH  040%=      5-min Rain = 0
KCL2 212136Z 18017G22KT 30/15 A2985 RMK A01 T02990150  RH  040%=      5-min Rain = 0
KCL2 212137Z 18014KT 30/15 A2985 RMK A01 T02990151  RH  041%=      5-min Rain = 0
KCL2 212138Z 18012KT 30/15 A2985 RMK A01 T02990152  RH  041%=      5-min Rain = 0
KCL2 212139Z 18014G21KT 30/15 A2984 RMK A01 T03000153  RH  041%=      5-min Rain = 0
KCL2 212140Z 18018KT 30/15 A2984 RMK A01 T03000151  RH  040%=      5-min Rain = 0
KCL2 212141Z 17017KT 30/15 A2984 RMK A01 T02980151  RH  041%=      5-min Rain = 0
KCL2 212142Z 18011KT 30/15 A2984 RMK A01 T02970150  RH  041%=      5-min Rain = 0
KCL2 212143Z 17014KT 30/15 A2984 RMK A01 T02990150  RH  040%=      5-min Rain = 0
KCL2 212144Z 18016KT 30/15 A2984 RMK A01 T03000148  RH  040%=      5-min Rain = 0
KCL2 212145Z 18015KT 30/14 A2984 RMK A01 T03000143  RH  038%=      5-min Rain = 0
KCL2 212146Z 18013KT 30/14 A2984 RMK A01 T03010137  RH  037%=      5-min Rain = 0
KCL2 212147Z 18013G18KT 30/14 A2984 RMK A01 T03010140  RH  037%=      5-min Rain = 0
KCL2 212148Z 18013KT 30/14 A2984 RMK A01 T03010141  RH  038%=      5-min Rain = 0
KCL2 212149Z 19016KT 30/15 A2984 RMK A01 T03010146  RH  039%=      5-min Rain = 0
KCL2 212150Z 17013KT 30/15 A2985 RMK A01 T02990149  RH  040%=      5-min Rain = 0
KCL2 212151Z 16012KT 30/16 A2985 RMK A01 T02990155  RH  042%=      5-min Rain = 0
KCL2 212152Z 16013KT 30/16 A2985 RMK A01 T02990157  RH  042%=      5-min Rain = 0
KCL2 212153Z 19013KT 30/16 A2985 RMK A01 T03000158  RH  042%=      5-min Rain = 0
KCL2 212154Z 19014KT 30/15 A2985 RMK A01 T03010151  RH  040%=      5-min Rain = 0
KCL2 212155Z 18011KT 30/16 A2985 RMK A01 T03010155  RH  041%=      5-min Rain = 0
KCL2 212156Z 19011G17KT 30/16 A2985 RMK A01 T03010155  RH  041%=      5-min Rain = 0
KCL2 212157Z 17018KT 30/15 A2985 RMK A01 T03000154  RH  041%=      5-min Rain = 0
KCL2 212158Z 18015KT 30/15 A2985 RMK A01 T02990154  RH  041%=      5-min Rain = 0
KCL2 212159Z 17009KT 30/16 A2985 RMK A01 T02970156  RH  042%=      5-min Rain = 0
KCL2 212200Z 17016KT 30/16 A2985 RMK A01 T02970155  RH  042%=      5-min Rain = 0
KCL2 212201Z 18015KT 30/16 A2985 RMK A01 T02970155  RH  042%=      5-min Rain = 0
KCL2 212202Z 18013KT 30/16 A2985 RMK A01 T02960156  RH  043%=      5-min Rain = 0
KCL2 212203Z 17014G19KT 30/16 A2984 RMK A01 T02960157  RH  043%=      5-min Rain = 0
KCL2 212204Z 17017G23KT 30/15 A2985 RMK A01 T02970154  RH  042%=      5-min Rain = 0
KCL2 212205Z 17013KT 30/16 A2985 RMK A01 T02960156  RH  043%=      5-min Rain = 0
KCL2 212206Z 16015G20KT 30/16 A2985 RMK A01 T02960156  RH  043%=      5-min Rain = 0
KCL2 212207Z 16013KT 30/16 A2985 RMK A01 T02960156  RH  043%=      5-min Rain = 0
KCL2 212208Z 17014G20KT 30/16 A2985 RMK A01 T02960155  RH  043%=      5-min Rain = 0
KCL2 212209Z 17018G23KT 30/16 A2985 RMK A01 T02950155  RH  043%=      5-min Rain = 0
KCL2 212210Z 17020KT 29/15 A2984 RMK A01 T02940151  RH  042%=      5-min Rain = 0
KCL2 212211Z 17018KT 29/15 A2984 RMK A01 T02910152  RH  043%=      5-min Rain = 0
KCL2 212212Z 18016KT 29/15 A2985 RMK A01 T02900152  RH  043%=      5-min Rain = 0
KCL2 212213Z 18016G21KT 29/15 A2985 RMK A01 T02900153  RH  043%=      5-min Rain = 0
KCL2 212214Z 18015KT 29/15 A2984 RMK A01 T02900154  RH  044%=      5-min Rain = 0
KCL2 212215Z 18017G22KT 29/16 A2985 RMK A01 T02900155  RH  044%=      5-min Rain = 0
KCL2 212216Z 18016G22KT 29/15 A2984 RMK A01 T02910153  RH  043%=      5-min Rain = 0
KCL2 212217Z 18015KT 29/15 A2984 RMK A01 T02910154  RH  043%=      5-min Rain = 0
KCL2 212218Z 18016KT 29/16 A2985 RMK A01 T02900156  RH  044%=      5-min Rain = 0
KCL2 212219Z 18017G22KT 29/15 A2984 RMK A01 T02900152  RH  043%=      5-min Rain = 0
KCL2 212220Z 17016KT 29/15 A2984 RMK A01 T02900154  RH  044%=      5-min Rain = 0
KCL2 212221Z 17017G22KT 29/15 A2984 RMK A01 T02910153  RH  043%=      5-min Rain = 0
KCL2 212222Z 17018KT 29/15 A2984 RMK A01 T02900153  RH  043%=      5-min Rain = 0
KCL2 212223Z 17020KT 29/15 A2984 RMK A01 T02900151  RH  043%=      5-min Rain = 0
KCL2 212224Z 17018KT 29/15 A2984 RMK A01 T02890150  RH  043%=      5-min Rain = 0
KCL2 212225Z 17015KT 29/15 A2984 RMK A01 T02880151  RH  043%=      5-min Rain = 0
KCL2 212226Z 16011G18KT 29/15 A2985 RMK A01 T02890154  RH  044%=      5-min Rain = 0
KCL2 212227Z 16014KT 29/15 A2984 RMK A01 T02900153  RH  043%=      5-min Rain = 0
KCL2 212228Z 18015G23KT 29/15 A2985 RMK A01 T02920154  RH  043%=      5-min Rain = 0
KCL2 212229Z 17016G21KT 29/15 A2985 RMK A01 T02910152  RH  043%=      5-min Rain = 0
KCL2 212230Z 16018G24KT 29/15 A2984 RMK A01 T02910151  RH  043%=      5-min Rain = 0
KCL2 212231Z 17017KT 29/15 A2985 RMK A01 T02900148  RH  042%=      5-min Rain = 0
KCL2 212232Z 16014G19KT 29/15 A2985 RMK A01 T02880149  RH  043%=      5-min Rain = 0
KCL2 212233Z 16017KT 29/15 A2985 RMK A01 T02880149  RH  043%=      5-min Rain = 0
KCL2 212234Z 18015G20KT 29/15 A2985 RMK A01 T02880150  RH  043%=      5-min Rain = 0
KCL2 212235Z 17018KT 29/15 A2985 RMK A01 T02880147  RH  042%=      5-min Rain = 0
KCL2 212236Z 17017G22KT 29/15 A2985 RMK A01 T02870147  RH  042%=      5-min Rain = 0
KCL2 212237Z 17017KT 29/15 A2985 RMK A01 T02870148  RH  043%=      5-min Rain = 0
KCL2 212238Z 18019KT 29/15 A2985 RMK A01 T02870148  RH  043%=      5-min Rain = 0
KCL2 212239Z 18018KT 29/15 A2985 RMK A01 T02870148  RH  043%=      5-min Rain = 0
KCL2 212240Z 19017KT 29/15 A2985 RMK A01 T02870148  RH  043%=      5-min Rain = 0
KCL2 212241Z 18017KT 29/15 A2985 RMK A01 T02870149  RH  043%=      5-min Rain = 0
KCL2 212242Z 16016G21KT 29/15 A2985 RMK A01 T02870149  RH  043%=      5-min Rain = 0
KCL2 212243Z 17016KT 29/15 A2985 RMK A01 T02870150  RH  043%=      5-min Rain = 0
KCL2 212244Z 16017KT 29/15 A2985 RMK A01 T02880148  RH  042%=      5-min Rain = 0
KCL2 212245Z 17018KT 29/15 A2985 RMK A01 T02880148  RH  042%=      5-min Rain = 0
KCL2 212246Z 16013KT 29/15 A2985 RMK A01 T02880149  RH  043%=      5-min Rain = 0
KCL2 212247Z 18013G20KT 29/15 A2985 RMK A01 T02880152  RH  044%=      5-min Rain = 0
KCL2 212248Z 18019KT 29/15 A2984 RMK A01 T02890148  RH  042%=      5-min Rain = 0
KCL2 212249Z 17014KT 29/15 A2985 RMK A01 T02880150  RH  043%=      5-min Rain = 0
KCL2 212250Z 17017KT 29/15 A2985 RMK A01 T02880151  RH  043%=      5-min Rain = 0
KCL2 212251Z 17013KT 29/15 A2985 RMK A01 T02880151  RH  043%=      5-min Rain = 0
KCL2 212252Z 19015G20KT 29/15 A2985 RMK A01 T02890152  RH  043%=      5-min Rain = 0
KCL2 212253Z 18016G23KT 29/15 A2985 RMK A01 T02890149  RH  042%=      5-min Rain = 0
KCL2 212254Z 17017KT 29/15 A2985 RMK A01 T02880147  RH  042%=      5-min Rain = 0
KCL2 212255Z 18014KT 29/15 A2985 RMK A01 T02870149  RH  043%=      5-min Rain = 0
KCL2 212256Z 18015KT 29/15 A2985 RMK A01 T02870149  RH  043%=      5-min Rain = 0
KCL2 212257Z 17016KT 29/15 A2985 RMK A01 T02870149  RH  043%=      5-min Rain = 0
KCL2 212258Z 17013KT 29/15 A2985 RMK A01 T02870151  RH  044%=      5-min Rain = 0
KCL2 212259Z 16013G20KT 29/15 A2985 RMK A01 T02880152  RH  044%=      5-min Rain = 0
KCL2 212300Z 17017KT 29/15 A2985 RMK A01 T02880149  RH  043%=      5-min Rain = 0
KCL2 212301Z 17020KT 29/15 A2985 RMK A01 T02870147  RH  042%=      5-min Rain = 0
KCL2 212302Z 17019KT 29/15 A2985 RMK A01 T02860146  RH  043%=      5-min Rain = 0
KCL2 212303Z 18018KT 29/15 A2985 RMK A01 T02860146  RH  043%=      5-min Rain = 0
KCL2 212304Z 17016KT 29/15 A2985 RMK A01 T02850147  RH  043%=      5-min Rain = 0
KCL2 212305Z 17016KT 29/15 A2985 RMK A01 T02850147  RH  043%=      5-min Rain = 0
KCL2 212306Z 17015KT 29/15 A2985 RMK A01 T02850147  RH  043%=      5-min Rain = 0
KCL2 212307Z 17015KT 29/15 A2985 RMK A01 T02850148  RH  043%=      5-min Rain = 0
KCL2 212308Z 17013KT 29/15 A2985 RMK A01 T02850149  RH  043%=      5-min Rain = 0
KCL2 212309Z 18016KT 29/15 A2985 RMK A01 T02850149  RH  044%=      5-min Rain = 0
KCL2 212310Z 17019KT 29/15 A2985 RMK A01 T02850146  RH  043%=      5-min Rain = 0
KCL2 212311Z 17016KT 29/15 A2985 RMK A01 T02850147  RH  043%=      5-min Rain = 0
KCL2 212312Z 18016KT 28/15 A2985 RMK A01 T02840147  RH  043%=      5-min Rain = 0
KCL2 212313Z 17014KT 28/15 A2985 RMK A01 T02840148  RH  044%=      5-min Rain = 0
KCL2 212314Z 17019G24KT 28/15 A2985 RMK A01 T02840148  RH  044%=      5-min Rain = 0
KCL2 212315Z 16018KT 28/15 A2985 RMK A01 T02840146  RH  043%=      5-min Rain = 0
KCL2 212316Z 17018KT 28/15 A2985 RMK A01 T02840147  RH  043%=      5-min Rain = 0
KCL2 212317Z 17014G21KT 28/15 A2985 RMK A01 T02840148  RH  044%=      5-min Rain = 0
KCL2 212318Z 16019KT 28/15 A2985 RMK A01 T02840147  RH  043%=      5-min Rain = 0
KCL2 212319Z 17016G21KT 28/15 A2985 RMK A01 T02840146  RH  043%=      5-min Rain = 0
KCL2 212320Z 17015KT 28/15 A2985 RMK A01 T02830147  RH  043%=      5-min Rain = 0
KCL2 212321Z 17016G21KT 28/15 A2985 RMK A01 T02830149  RH  044%=      5-min Rain = 0
KCL2 212322Z 17014KT 28/15 A2985 RMK A01 T02830148  RH  044%=      5-min Rain = 0
KCL2 212323Z 17012KT 28/15 A2985 RMK A01 T02830149  RH  044%=      5-min Rain = 0
KCL2 212324Z 17014G20KT 28/15 A2985 RMK A01 T02830149  RH  044%=      5-min Rain = 0
KCL2 212325Z 18016G22KT 28/15 A2985 RMK A01 T02830150  RH  044%=      5-min Rain = 0
KCL2 212326Z 17015KT 28/15 A2985 RMK A01 T02830149  RH  044%=      5-min Rain = 0
KCL2 212327Z 17015G20KT 28/15 A2985 RMK A01 T02830148  RH  044%=      5-min Rain = 0
KCL2 212328Z 18015G20KT 28/15 A2985 RMK A01 T02820149  RH  044%=      5-min Rain = 0
KCL2 212329Z 18011G16KT 28/15 A2985 RMK A01 T02820150  RH  044%=      5-min Rain = 0
KCL2 212330Z 17015KT 28/15 A2985 RMK A01 T02820149  RH  044%=      5-min Rain = 0
KCL2 212331Z 17014G19KT 28/15 A2985 RMK A01 T02820149  RH  044%=      5-min Rain = 0
KCL2 212332Z 17013KT 28/15 A2985 RMK A01 T02810150  RH  045%=      5-min Rain = 0
KCL2 212333Z 17014G19KT 28/15 A2985 RMK A01 T02810150  RH  045%=      5-min Rain = 0
KCL2 212334Z 17013G20KT 28/15 A2984 RMK A01 T02810149  RH  045%=      5-min Rain = 0
KCL2 212335Z 18016KT 28/15 A2984 RMK A01 T02810148  RH  044%=      5-min Rain = 0
KCL2 212336Z 17015KT 28/15 A2984 RMK A01 T02810148  RH  044%=      5-min Rain = 0
KCL2 212337Z 17016G21KT 28/15 A2984 RMK A01 T02800147  RH  044%=      5-min Rain = 0
KCL2 212338Z 17016KT 28/15 A2984 RMK A01 T02800147  RH  044%=      5-min Rain = 0
KCL2 212339Z 17016KT 28/15 A2985 RMK A01 T02800147  RH  044%=      5-min Rain = 0
KCL2 212340Z 17013G18KT 28/15 A2985 RMK A01 T02800147  RH  044%=      5-min Rain = 0
KCL2 212341Z 16017G22KT 28/15 A2984 RMK A01 T02800146  RH  044%=      5-min Rain = 0
KCL2 212342Z 17016G21KT 28/15 A2985 RMK A01 T02800146  RH  044%=      5-min Rain = 0
KCL2 212343Z 17018KT 28/14 A2984 RMK A01 T02790144  RH  044%=      5-min Rain = 0
KCL2 212344Z 16018KT 28/14 A2984 RMK A01 T02790144  RH  044%=      5-min Rain = 0
KCL2 212345Z 17014G22KT 28/15 A2984 RMK A01 T02790146  RH  044%=      5-min Rain = 0
KCL2 212346Z 17015KT 28/15 A2984 RMK A01 T02790146  RH  044%=      5-min Rain = 0
KCL2 212347Z 17014KT 28/15 A2985 RMK A01 T02780147  RH  045%=      5-min Rain = 0
KCL2 212348Z 16014KT 28/15 A2985 RMK A01 T02780147  RH  045%=      5-min Rain = 0
KCL2 212349Z 16012KT 28/15 A2985 RMK A01 T02780147  RH  045%=      5-min Rain = 0
KCL2 212350Z 17013G18KT 28/15 A2984 RMK A01 T02770148  RH  045%=      5-min Rain = 0
KCL2 212351Z 17012KT 28/15 A2984 RMK A01 T02770147  RH  045%=      5-min Rain = 0
KCL2 212352Z 17015KT 28/15 A2984 RMK A01 T02770147  RH  045%=      5-min Rain = 0
KCL2 212353Z 16017G23KT 28/15 A2984 RMK A01 T02760146  RH  045%=      5-min Rain = 0
KCL2 212354Z 16015G21KT 28/14 A2984 RMK A01 T02760144  RH  044%=      5-min Rain = 0
KCL2 212355Z 17017KT 28/14 A2984 RMK A01 T02750143  RH  044%=      5-min Rain = 0
KCL2 212356Z 16015KT 28/14 A2984 RMK A01 T02750143  RH  044%=      5-min Rain = 0
KCL2 212357Z 16016G22KT 27/14 A2984 RMK A01 T02740144  RH  045%=      5-min Rain = 0
KCL2 212358Z 16018KT 27/14 A2984 RMK A01 T02740142  RH  044%=      5-min Rain = 0
KCL2 212359Z 16016G21KT 27/14 A2984 RMK A01 T02740141  RH  044%=      5-min Rain = 0
KCL2 220000Z 16021KT 27/14 A2984 RMK A01 T02730140  RH  044%=      5-min Rain = 0
KCL2 220001Z 16019G24KT 27/14 A2984 RMK A01 T02730140  RH  044%=      5-min Rain = 0
KCL2 220002Z 17015KT 27/14 A2984 RMK A01 T02730141  RH  044%=      5-min Rain = 0
KCL2 220003Z 15015G22KT 27/14 A2984 RMK A01 T02720141  RH  045%=      5-min Rain = 0
KCL2 220004Z 16016G22KT 27/14 A2984 RMK A01 T02720140  RH  044%=      5-min Rain = 0
KCL2 220005Z 17013G19KT 27/14 A2984 RMK A01 T02720142  RH  045%=      5-min Rain = 0
KCL2 220006Z 16017KT 27/14 A2984 RMK A01 T02710141  RH  045%=      5-min Rain = 0
KCL2 220007Z 17016KT 27/14 A2984 RMK A01 T02710141  RH  045%=      5-min Rain = 0
KCL2 220008Z 16014G20KT 27/14 A2984 RMK A01 T02710141  RH  045%=      5-min Rain = 0
KCL2 220009Z 16016KT 27/14 A2984 RMK A01 T02700141  RH  045%=      5-min Rain = 0
KCL2 220010Z 16016G21KT 27/14 A2984 RMK A01 T02700139  RH  044%=      5-min Rain = 0
KCL2 220011Z 17016G21KT 27/14 A2984 RMK A01 T02700139  RH  045%=      5-min Rain = 0
KCL2 220012Z 17015KT 27/14 A2984 RMK A01 T02700138  RH  044%=      5-min Rain = 0
KCL2 220013Z 16014G19KT 27/14 A2984 RMK A01 T02690138  RH  044%=      5-min Rain = 0
KCL2 220014Z 16017KT 27/14 A2984 RMK A01 T02690138  RH  044%=      5-min Rain = 0
KCL2 220015Z 16017G22KT 27/14 A2984 RMK A01 T02690137  RH  044%=      5-min Rain = 0
KCL2 220016Z 17016KT 27/14 A2984 RMK A01 T02680137  RH  044%=      5-min Rain = 0
KCL2 220017Z 17016KT 27/14 A2984 RMK A01 T02680137  RH  044%=      5-min Rain = 0
KCL2 220018Z 16017G22KT 27/14 A2984 RMK A01 T02680136  RH  044%=      5-min Rain = 0
KCL2 220019Z 16016KT 27/14 A2984 RMK A01 T02680136  RH  044%=      5-min Rain = 0
KCL2 220020Z 17014KT 27/14 A2984 RMK A01 T02670136  RH  044%=      5-min Rain = 0
KCL2 220021Z 17017G22KT 27/14 A2984 RMK A01 T02670136  RH  044%=      5-min Rain = 0
KCL2 220022Z 17018KT 27/14 A2984 RMK A01 T02660136  RH  045%=      5-min Rain = 0
KCL2 220023Z 16014G19KT 27/14 A2984 RMK A01 T02660136  RH  045%=      5-min Rain = 0
KCL2 220024Z 17015G21KT 27/14 A2984 RMK A01 T02650136  RH  045%=      5-min Rain = 0
KCL2 220025Z 17016G24KT 27/14 A2984 RMK A01 T02650135  RH  045%=      5-min Rain = 0
KCL2 220026Z 17017KT 27/13 A2984 RMK A01 T02650134  RH  044%=      5-min Rain = 0
KCL2 220027Z 17015KT 27/13 A2984 RMK A01 T02650134  RH  044%=      5-min Rain = 0
KCL2 220028Z 17015KT 27/13 A2984 RMK A01 T02650134  RH  044%=      5-min Rain = 0
KCL2 220029Z 17016KT 26/13 A2984 RMK A01 T02640134  RH  044%=      5-min Rain = 0
KCL2 220030Z 17015KT 26/13 A2984 RMK A01 T02640133  RH  044%=      5-min Rain = 0
KCL2 220031Z 17015KT 26/13 A2984 RMK A01 T02640133  RH  044%=      5-min Rain = 0
KCL2 220032Z 17016KT 26/13 A2984 RMK A01 T02630133  RH  045%=      5-min Rain = 0
KCL2 220033Z 17015G21KT 26/13 A2984 RMK A01 T02630133  RH  045%=      5-min Rain = 0
KCL2 220034Z 17015G21KT 26/13 A2985 RMK A01 T02620133  RH  045%=      5-min Rain = 0
KCL2 220035Z 17015KT 26/13 A2985 RMK A01 T02620133  RH  045%=      5-min Rain = 0
KCL2 220036Z 17017KT 26/13 A2985 RMK A01 T02620133  RH  045%=      5-min Rain = 0
KCL2 220037Z 17017KT 26/13 A2985 RMK A01 T02610132  RH  045%=      5-min Rain = 0
KCL2 220038Z 17014KT 26/13 A2985 RMK A01 T02610133  RH  045%=      5-min Rain = 0
KCL2 220039Z 17014G19KT 26/13 A2985 RMK A01 T02600133  RH  045%=      5-min Rain = 0
KCL2 220040Z 17014G21KT 26/13 A2985 RMK A01 T02600134  RH  046%=      5-min Rain = 0
KCL2 220041Z 17014KT 26/13 A2985 RMK A01 T02590133  RH  046%=      5-min Rain = 0
KCL2 220042Z 17013KT 26/13 A2985 RMK A01 T02580134  RH  046%=      5-min Rain = 0
KCL2 220043Z 17018KT 26/13 A2985 RMK A01 T02580134  RH  046%=      5-min Rain = 0
KCL2 220044Z 17014G19KT 26/13 A2985 RMK A01 T02580133  RH  046%=      5-min Rain = 0
KCL2 220045Z 16017KT 26/13 A2985 RMK A01 T02580133  RH  046%=      5-min Rain = 0
KCL2 220046Z 17015G20KT 26/13 A2985 RMK A01 T02580133  RH  046%=      5-min Rain = 0
KCL2 220047Z 16013KT 26/13 A2985 RMK A01 T02580134  RH  046%=      5-min Rain = 0
KCL2 220048Z 17013G18KT 26/13 A2985 RMK A01 T02570134  RH  046%=      5-min Rain = 0
KCL2 220049Z 16016G23KT 26/13 A2985 RMK A01 T02560134  RH  047%=      5-min Rain = 0
KCL2 220050Z 17016G22KT 26/13 A2985 RMK A01 T02560134  RH  047%=      5-min Rain = 0
KCL2 220051Z 17015G20KT 26/13 A2985 RMK A01 T02550134  RH  047%=      5-min Rain = 0
KCL2 220052Z 17016G21KT 26/13 A2985 RMK A01 T02550134  RH  047%=      5-min Rain = 0
KCL2 220053Z 17014G20KT 26/13 A2985 RMK A01 T02550133  RH  047%=      5-min Rain = 0
KCL2 220054Z 17017G23KT 25/13 A2985 RMK A01 T02540134  RH  047%=      5-min Rain = 0
KCL2 220055Z 17017G23KT 25/13 A2985 RMK A01 T02540134  RH  047%=      5-min Rain = 0
KCL2 220056Z 17016G22KT 25/13 A2985 RMK A01 T02540133  RH  047%=      5-min Rain = 0
KCL2 220057Z 17014KT 25/13 A2985 RMK A01 T02540134  RH  047%=      5-min Rain = 0
KCL2 220058Z 17018KT 25/13 A2985 RMK A01 T02530134  RH  048%=      5-min Rain = 0
KCL2 220059Z 16016G22KT 25/13 A2985 RMK A01 T02530134  RH  048%=      5-min Rain = 0
KCL2 220100Z 17015KT 25/13 A2985 RMK A01 T02520134  RH  048%=      5-min Rain = 0
KCL2 220101Z 16015KT 25/13 A2985 RMK A01 T02520134  RH  048%=      5-min Rain = 0
KCL2 220102Z 17014KT 25/13 A2985 RMK A01 T02510134  RH  048%=      5-min Rain = 0
KCL2 220103Z 17017KT 25/13 A2985 RMK A01 T02510134  RH  048%=      5-min Rain = 0
KCL2 220104Z 17016KT 25/13 A2985 RMK A01 T02510133  RH  048%=      5-min Rain = 0
KCL2 220105Z 17015KT 25/13 A2985 RMK A01 T02510133  RH  048%=      5-min Rain = 0
KCL2 220106Z 17015G20KT 25/13 A2985 RMK A01 T02510134  RH  048%=      5-min Rain = 0
KCL2 220107Z 17014KT 25/13 A2985 RMK A01 T02500134  RH  048%=      5-min Rain = 0
KCL2 220108Z 17013KT 25/13 A2985 RMK A01 T02490134  RH  049%=      5-min Rain = 0
KCL2 220109Z 17014KT 25/13 A2985 RMK A01 T02490134  RH  049%=      5-min Rain = 0
KCL2 220110Z 17016KT 25/13 A2985 RMK A01 T02490134  RH  049%=      5-min Rain = 0
KCL2 220111Z 17014KT 25/13 A2986 RMK A01 T02490134  RH  049%=      5-min Rain = 0
KCL2 220112Z 17012KT 25/13 A2986 RMK A01 T02480134  RH  049%=      5-min Rain = 0
KCL2 220113Z 17015G20KT 25/13 A2986 RMK A01 T02470134  RH  050%=      5-min Rain = 0
KCL2 220114Z 17016KT 25/13 A2986 RMK A01 T02460134  RH  049%=      5-min Rain = 0
KCL2 220115Z 16013G19KT 25/13 A2986 RMK A01 T02470134  RH  049%=      5-min Rain = 0
KCL2 220116Z 17013KT 25/13 A2986 RMK A01 T02460134  RH  050%=      5-min Rain = 0
KCL2 220117Z 17011KT 25/13 A2986 RMK A01 T02460134  RH  050%=      5-min Rain = 0
KCL2 220118Z 17013G19KT 25/14 A2986 RMK A01 T02450135  RH  050%=      5-min Rain = 0
KCL2 220119Z 17014G19KT 24/14 A2986 RMK A01 T02440135  RH  050%=      5-min Rain = 0
KCL2 220120Z 17015KT 24/13 A2986 RMK A01 T02440134  RH  050%=      5-min Rain = 0
KCL2 220121Z 17013G20KT 24/13 A2986 RMK A01 T02440134  RH  050%=      5-min Rain = 0
KCL2 220122Z 17015KT 24/13 A2986 RMK A01 T02440134  RH  050%=      5-min Rain = 0
KCL2 220123Z 17013KT 24/13 A2986 RMK A01 T02440134  RH  050%=      5-min Rain = 0
KCL2 220124Z 17015KT 24/13 A2986 RMK A01 T02440134  RH  050%=      5-min Rain = 0
KCL2 220125Z 17012KT 24/14 A2986 RMK A01 T02440135  RH  051%=      5-min Rain = 0
KCL2 220126Z 17013KT 24/14 A2986 RMK A01 T02430135  RH  051%=      5-min Rain = 0
KCL2 220127Z 17015KT 24/14 A2986 RMK A01 T02430135  RH  051%=      5-min Rain = 0
KCL2 220128Z 17012KT 24/14 A2986 RMK A01 T02430135  RH  051%=      5-min Rain = 0
KCL2 220129Z 17013KT 24/14 A2986 RMK A01 T02420136  RH  051%=      5-min Rain = 0
KCL2 220130Z 17013KT 24/14 A2986 RMK A01 T02420136  RH  051%=      5-min Rain = 0
KCL2 220131Z 17015KT 24/14 A2986 RMK A01 T02410135  RH  051%=      5-min Rain = 0
KCL2 220132Z 17015G20KT 24/14 A2986 RMK A01 T02410135  RH  051%=      5-min Rain = 0
KCL2 220133Z 17016KT 24/14 A2986 RMK A01 T02420135  RH  051%=      5-min Rain = 0
KCL2 220134Z 17018KT 24/14 A2986 RMK A01 T02420135  RH  051%=      5-min Rain = 0
KCL2 220135Z 17017KT 24/14 A2986 RMK A01 T02420135  RH  051%=      5-min Rain = 0
KCL2 220136Z 16013KT 24/14 A2987 RMK A01 T02430135  RH  051%=      5-min Rain = 0
KCL2 220137Z 17013KT 24/14 A2987 RMK A01 T02420135  RH  051%=      5-min Rain = 0
KCL2 220138Z 17014KT 24/14 A2987 RMK A01 T02410135  RH  051%=      5-min Rain = 0
KCL2 220139Z 17016KT 24/14 A2987 RMK A01 T02410135  RH  052%=      5-min Rain = 0
KCL2 220140Z 17016G21KT 24/14 A2987 RMK A01 T02410135  RH  052%=      5-min Rain = 0
KCL2 220141Z 17018KT 24/13 A2987 RMK A01 T02410134  RH  051%=      5-min Rain = 0
KCL2 220142Z 17014KT 24/14 A2987 RMK A01 T02420135  RH  051%=      5-min Rain = 0
KCL2 220143Z 17016G21KT 24/14 A2987 RMK A01 T02420135  RH  051%=      5-min Rain = 0
KCL2 220144Z 17016G21KT 24/14 A2987 RMK A01 T02420135  RH  051%=      5-min Rain = 0
KCL2 220145Z 17016KT 24/14 A2987 RMK A01 T02420135  RH  051%=      5-min Rain = 0
KCL2 220146Z 17013KT 24/14 A2987 RMK A01 T02420135  RH  051%=      5-min Rain = 0
KCL2 220147Z 17013G18KT 24/14 A2987 RMK A01 T02410135  RH  051%=      5-min Rain = 0
KCL2 220148Z 17015G21KT 24/14 A2987 RMK A01 T02400135  RH  052%=      5-min Rain = 0
KCL2 220149Z 17015G20KT 24/14 A2987 RMK A01 T02400135  RH  052%=      5-min Rain = 0
KCL2 220150Z 17016KT 24/13 A2987 RMK A01 T02400134  RH  052%=      5-min Rain = 0
KCL2 220151Z 17015KT 24/14 A2987 RMK A01 T02400135  RH  052%=      5-min Rain = 0
KCL2 220152Z 17013G20KT 24/14 A2987 RMK A01 T02400135  RH  052%=      5-min Rain = 0
KCL2 220153Z 17015KT 24/14 A2987 RMK A01 T02400135  RH  052%=      5-min Rain = 0
KCL2 220154Z 16013KT 24/14 A2987 RMK A01 T02400135  RH  052%=      5-min Rain = 0
KCL2 220155Z 17014KT 24/14 A2987 RMK A01 T02390135  RH  052%=      5-min Rain = 0
KCL2 220156Z 17015KT 24/14 A2987 RMK A01 T02390135  RH  052%=      5-min Rain = 0
KCL2 220157Z 17015KT 24/14 A2988 RMK A01 T02390135  RH  052%=      5-min Rain = 0
KCL2 220158Z 17016G21KT 24/14 A2988 RMK A01 T02390135  RH  052%=      5-min Rain = 0
KCL2 220159Z 17016G22KT 24/14 A2988 RMK A01 T02390135  RH  052%=      5-min Rain = 0
KCL2 220200Z 17016G21KT 24/14 A2988 RMK A01 T02390135  RH  052%=      5-min Rain = 0
KCL2 220201Z 17014G19KT 24/14 A2988 RMK A01 T02390135  RH  052%=      5-min Rain = 0
KCL2 220202Z 17015G20KT 24/14 A2988 RMK A01 T02390136  RH  052%=      5-min Rain = 0
KCL2 220203Z 17014KT 24/14 A2988 RMK A01 T02380136  RH  053%=      5-min Rain = 0
KCL2 220204Z 17013KT 24/14 A2988 RMK A01 T02380136  RH  053%=      5-min Rain = 0
KCL2 220205Z 17014KT 24/14 A2988 RMK A01 T02380136  RH  053%=      5-min Rain = 0
KCL2 220206Z 17014KT 24/14 A2988 RMK A01 T02370136  RH  053%=      5-min Rain = 0
KCL2 220207Z 17013G18KT 24/14 A2988 RMK A01 T02370136  RH  053%=      5-min Rain = 0
KCL2 220208Z 16014KT 24/14 A2988 RMK A01 T02370136  RH  053%=      5-min Rain = 0
KCL2 220209Z 17015G20KT 24/14 A2988 RMK A01 T02370136  RH  053%=      5-min Rain = 0
KCL2 220210Z 17013KT 24/14 A2988 RMK A01 T02370137  RH  053%=      5-min Rain = 0
KCL2 220211Z 17014G19KT 24/14 A2988 RMK A01 T02370137  RH  053%=      5-min Rain = 0
KCL2 220212Z 17013G19KT 24/14 A2988 RMK A01 T02370136  RH  053%=      5-min Rain = 0
KCL2 220213Z 17011G18KT 24/14 A2988 RMK A01 T02370137  RH  054%=      5-min Rain = 0
KCL2 220214Z 17014KT 24/14 A2988 RMK A01 T02360136  RH  054%=      5-min Rain = 0
KCL2 220215Z 17012KT 24/14 A2988 RMK A01 T02360137  RH  054%=      5-min Rain = 0
KCL2 220216Z 17015KT 24/14 A2989 RMK A01 T02360137  RH  054%=      5-min Rain = 0
KCL2 220217Z 17015KT 24/14 A2989 RMK A01 T02360137  RH  054%=      5-min Rain = 0
KCL2 220218Z 17014KT 24/14 A2989 RMK A01 T02350137  RH  054%=      5-min Rain = 0
KCL2 220219Z 16013G18KT 24/14 A2989 RMK A01 T02350137  RH  054%=      5-min Rain = 0
KCL2 220220Z 16013KT 24/14 A2989 RMK A01 T02350137  RH  054%=      5-min Rain = 0
KCL2 220221Z 17012KT 23/14 A2989 RMK A01 T02340137  RH  054%=      5-min Rain = 0
KCL2 220222Z 16014KT 23/14 A2989 RMK A01 T02330137  RH  055%=      5-min Rain = 0
KCL2 220223Z 17013KT 23/14 A2989 RMK A01 T02330137  RH  055%=      5-min Rain = 0
KCL2 220224Z 17014KT 23/14 A2989 RMK A01 T02330137  RH  055%=      5-min Rain = 0
KCL2 220225Z 16012KT 23/14 A2989 RMK A01 T02330137  RH  055%=      5-min Rain = 0
KCL2 220226Z 16013KT 23/14 A2989 RMK A01 T02330137  RH  055%=      5-min Rain = 0
KCL2 220227Z 16015KT 23/14 A2989 RMK A01 T02330137  RH  055%=      5-min Rain = 0
KCL2 220228Z 16016KT 23/14 A2989 RMK A01 T02320137  RH  055%=      5-min Rain = 0
KCL2 220229Z 16015KT 23/14 A2989 RMK A01 T02330137  RH  055%=      5-min Rain = 0
KCL2 220230Z 17013KT 23/14 A2989 RMK A01 T02330138  RH  055%=      5-min Rain = 0
KCL2 220231Z 17012KT 23/14 A2989 RMK A01 T02320138  RH  055%=      5-min Rain = 0
KCL2 220232Z 17013KT 23/14 A2989 RMK A01 T02310138  RH  056%=      5-min Rain = 0
KCL2 220233Z 16013KT 23/14 A2989 RMK A01 T02310138  RH  056%=      5-min Rain = 0
KCL2 220234Z 16015KT 23/14 A2989 RMK A01 T02310138  RH  056%=      5-min Rain = 0
KCL2 220235Z 16014G19KT 23/14 A2989 RMK A01 T02300138  RH  056%=      5-min Rain = 0
KCL2 220236Z 16014G22KT 23/14 A2989 RMK A01 T02300138  RH  056%=      5-min Rain = 0
KCL2 220237Z 16014KT 23/14 A2989 RMK A01 T02310138  RH  056%=      5-min Rain = 0
KCL2 220238Z 16012KT 23/14 A2989 RMK A01 T02300138  RH  056%=      5-min Rain = 0
KCL2 220239Z 16013KT 23/14 A2989 RMK A01 T02290138  RH  056%=      5-min Rain = 0
KCL2 220240Z 16012KT 23/14 A2989 RMK A01 T02290138  RH  056%=      5-min Rain = 0
KCL2 220241Z 16013KT 23/14 A2989 RMK A01 T02280138  RH  057%=      5-min Rain = 0
KCL2 220242Z 15012KT 23/14 A2989 RMK A01 T02280138  RH  057%=      5-min Rain = 0
KCL2 220243Z 16012G18KT 23/14 A2989 RMK A01 T02280138  RH  057%=      5-min Rain = 0
KCL2 220244Z 16015KT 23/14 A299 RMK A01 T02270138  RH  057%=      5-min Rain = 0
KCL2 220245Z 16013KT 23/14 A299 RMK A01 T02270138  RH  057%=      5-min Rain = 0
KCL2 220246Z 16012KT 23/14 A299 RMK A01 T02270139  RH  057%=      5-min Rain = 0
KCL2 220247Z 16013KT 23/14 A2989 RMK A01 T02260139  RH  058%=      5-min Rain = 0
KCL2 220248Z 16012KT 23/14 A299 RMK A01 T02260139  RH  058%=      5-min Rain = 0
KCL2 220249Z 16011G16KT 23/14 A299 RMK A01 T02250139  RH  058%=      5-min Rain = 0
KCL2 220250Z 16013G18KT 23/14 A299 RMK A01 T02250139  RH  058%=      5-min Rain = 0
KCL2 220251Z 16013KT 23/14 A299 RMK A01 T02250140  RH  059%=      5-min Rain = 0
KCL2 220252Z 16012KT 22/14 A299 RMK A01 T02240139  RH  059%=      5-min Rain = 0
KCL2 220253Z 16012KT 22/14 A299 RMK A01 T02240140  RH  059%=      5-min Rain = 0
KCL2 220254Z 16013KT 22/14 A299 RMK A01 T02240140  RH  059%=      5-min Rain = 0
KCL2 220255Z 16012KT 22/14 A299 RMK A01 T02230141  RH  059%=      5-min Rain = 0
KCL2 220256Z 17012KT 22/14 A299 RMK A01 T02230141  RH  060%=      5-min Rain = 0
KCL2 220257Z 17014KT 22/14 A299 RMK A01 T02230141  RH  060%=      5-min Rain = 0
KCL2 220258Z 16011KT 22/14 A299 RMK A01 T02230142  RH  060%=      5-min Rain = 0
KCL2 220259Z 17013G18KT 22/14 A299 RMK A01 T02230142  RH  060%=      5-min Rain = 0
KCL2 220300Z 16012KT 22/14 A299 RMK A01 T02220142  RH  060%=      5-min Rain = 0
KCL2 220301Z 16011KT 22/14 A299 RMK A01 T02220143  RH  061%=      5-min Rain = 0
KCL2 220302Z 16012KT 22/14 A299 RMK A01 T02210143  RH  061%=      5-min Rain = 0
KCL2 220303Z 16012G18KT 22/14 A2991 RMK A01 T02210144  RH  061%=      5-min Rain = 0
KCL2 220304Z 16013KT 22/14 A2991 RMK A01 T02210144  RH  061%=      5-min Rain = 0
KCL2 220305Z 16012KT 22/14 A2991 RMK A01 T02210144  RH  062%=      5-min Rain = 0
KCL2 220306Z 16012KT 22/14 A299 RMK A01 T02200144  RH  062%=      5-min Rain = 0
KCL2 220307Z 16011KT 22/15 A2991 RMK A01 T02210145  RH  062%=      5-min Rain = 0
KCL2 220308Z 16014KT 22/15 A2991 RMK A01 T02200145  RH  062%=      5-min Rain = 0
KCL2 220309Z 16012KT 22/15 A2991 RMK A01 T02200145  RH  062%=      5-min Rain = 0
KCL2 220310Z 16013KT 22/15 A2991 RMK A01 T02200145  RH  062%=      5-min Rain = 0
KCL2 220311Z 16012KT 22/15 A2991 RMK A01 T02200146  RH  063%=      5-min Rain = 0
KCL2 220312Z 16013KT 22/15 A2991 RMK A01 T02200146  RH  063%=      5-min Rain = 0
KCL2 220313Z 16012KT 22/15 A2991 RMK A01 T02190146  RH  063%=      5-min Rain = 0
KCL2 220314Z 17012KT 22/15 A2991 RMK A01 T02190146  RH  063%=      5-min Rain = 0
KCL2 220315Z 16013KT 22/15 A2991 RMK A01 T02190146  RH  063%=      5-min Rain = 0
KCL2 220316Z 16012KT 22/15 A2991 RMK A01 T02180146  RH  064%=      5-min Rain = 0
KCL2 220317Z 17013KT 22/15 A2991 RMK A01 T02190147  RH  064%=      5-min Rain = 0
KCL2 220318Z 16011KT 22/15 A2991 RMK A01 T02180147  RH  064%=      5-min Rain = 0
KCL2 220319Z 16013KT 22/15 A2991 RMK A01 T02180147  RH  064%=      5-min Rain = 0
KCL2 220320Z 16012KT 22/15 A2991 RMK A01 T02180148  RH  064%=      5-min Rain = 0
KCL2 220321Z 16012KT 22/15 A2991 RMK A01 T02170147  RH  065%=      5-min Rain = 0
KCL2 220322Z 16011KT 22/15 A2991 RMK A01 T02170148  RH  065%=      5-min Rain = 0
KCL2 220323Z 16011KT 22/15 A2991 RMK A01 T02170148  RH  065%=      5-min Rain = 0
KCL2 220324Z 16014G19KT 22/15 A2991 RMK A01 T02160148  RH  065%=      5-min Rain = 0
KCL2 220325Z 17012KT 22/15 A2991 RMK A01 T02170148  RH  065%=      5-min Rain = 0
KCL2 220326Z 17012KT 22/15 A2991 RMK A01 T02170148  RH  065%=      5-min Rain = 0
KCL2 220327Z 17012KT 22/15 A2991 RMK A01 T02160148  RH  065%=      5-min Rain = 0
KCL2 220328Z 17013KT 22/15 A2991 RMK A01 T02160148  RH  065%=      5-min Rain = 0
KCL2 220329Z 17014G20KT 22/15 A2991 RMK A01 T02160148  RH  065%=      5-min Rain = 0
KCL2 220330Z 16015KT 22/15 A2991 RMK A01 T02160148  RH  065%=      5-min Rain = 0
KCL2 220331Z 17013G18KT 22/15 A2991 RMK A01 T02160148  RH  065%=      5-min Rain = 0
KCL2 220332Z 16015KT 22/15 A2991 RMK A01 T02160148  RH  065%=      5-min Rain = 0
KCL2 220333Z 17013KT 22/15 A2992 RMK A01 T02170148  RH  065%=      5-min Rain = 0
KCL2 220334Z 17013KT 22/15 A2992 RMK A01 T02170148  RH  065%=      5-min Rain = 0
KCL2 220335Z 17013G19KT 22/15 A2992 RMK A01 T02160148  RH  065%=      5-min Rain = 0
KCL2 220336Z 17013KT 22/15 A2992 RMK A01 T02160148  RH  065%=      5-min Rain = 0
KCL2 220337Z 17014KT 22/15 A2992 RMK A01 T02160149  RH  066%=      5-min Rain = 0
KCL2 220338Z 17017KT 22/15 A2992 RMK A01 T02150148  RH  066%=      5-min Rain = 0
KCL2 220339Z 17015KT 22/15 A2992 RMK A01 T02160148  RH  065%=      5-min Rain = 0
KCL2 220340Z 16014KT 22/15 A2992 RMK A01 T02160148  RH  065%=      5-min Rain = 0
KCL2 220341Z 16015KT 22/15 A2992 RMK A01 T02160148  RH  065%=      5-min Rain = 0
KCL2 220342Z 17013G19KT 22/15 A2992 RMK A01 T02160148  RH  065%=      5-min Rain = 0
KCL2 220343Z 16015G20KT 22/15 A2992 RMK A01 T02160149  RH  065%=      5-min Rain = 0
KCL2 220344Z 16016KT 22/15 A2992 RMK A01 T02150148  RH  066%=      5-min Rain = 0
KCL2 220345Z 17014KT 22/15 A2992 RMK A01 T02150148  RH  066%=      5-min Rain = 0
KCL2 220346Z 16013KT 22/15 A2992 RMK A01 T02160148  RH  066%=      5-min Rain = 0
KCL2 220347Z 17016KT 22/15 A2992 RMK A01 T02150148  RH  066%=      5-min Rain = 0
KCL2 220348Z 17014G20KT 22/15 A2992 RMK A01 T02150148  RH  066%=      5-min Rain = 0
KCL2 220349Z 17014G21KT 22/15 A2992 RMK A01 T02150148  RH  066%=      5-min Rain = 0
KCL2 220350Z 17014KT 22/15 A2992 RMK A01 T02150149  RH  066%=      5-min Rain = 0
KCL2 220351Z 17014G19KT 22/15 A2992 RMK A01 T02150149  RH  066%=      5-min Rain = 0
KCL2 220352Z 17016KT 21/15 A2992 RMK A01 T02140148  RH  066%=      5-min Rain = 0
KCL2 220353Z 16014G19KT 21/15 A2992 RMK A01 T02140148  RH  066%=      5-min Rain = 0
KCL2 220354Z 17015KT 21/15 A2992 RMK A01 T02140148  RH  066%=      5-min Rain = 0
KCL2 220355Z 17014KT 21/15 A2992 RMK A01 T02140149  RH  066%=      5-min Rain = 0
KCL2 220356Z 17013KT 21/15 A2992 RMK A01 T02140149  RH  066%=      5-min Rain = 0
KCL2 220357Z 17015KT 21/15 A2992 RMK A01 T02140149  RH  066%=      5-min Rain = 0
KCL2 220358Z 17014KT 21/15 A2992 RMK A01 T02140149  RH  066%=      5-min Rain = 0
KCL2 220359Z 17013KT 21/15 A2992 RMK A01 T02140149  RH  067%=      5-min Rain = 0
KCL2 220400Z 17013G18KT 21/15 A2993 RMK A01 T02130149  RH  067%=      5-min Rain = 0
KCL2 220401Z 17012KT 21/15 A2993 RMK A01 T02130149  RH  067%=      5-min Rain = 0
KCL2 220402Z 17012KT 21/15 A2992 RMK A01 T02130149  RH  067%=      5-min Rain = 0
KCL2 220403Z 17014KT 21/15 A2992 RMK A01 T02120149  RH  067%=      5-min Rain = 0
KCL2 220404Z 17013KT 21/15 A2993 RMK A01 T02120149  RH  067%=      5-min Rain = 0
KCL2 220405Z 17016KT 21/15 A2993 RMK A01 T02120149  RH  067%=      5-min Rain = 0
KCL2 220406Z 17013KT 21/15 A2992 RMK A01 T02120149  RH  067%=      5-min Rain = 0
KCL2 220407Z 17013G18KT 21/15 A2992 RMK A01 T02120149  RH  067%=      5-min Rain = 0
KCL2 220408Z 17016KT 21/15 A2992 RMK A01 T02120150  RH  068%=      5-min Rain = 0
KCL2 220409Z 17014KT 21/15 A2992 RMK A01 T02120149  RH  068%=      5-min Rain = 0
KCL2 220410Z 17014KT 21/15 A2992 RMK A01 T02110149  RH  068%=      5-min Rain = 0
KCL2 220411Z 17013KT 21/15 A2992 RMK A01 T02110149  RH  068%=      5-min Rain = 0
KCL2 220412Z 16014KT 21/15 A2993 RMK A01 T02100149  RH  068%=      5-min Rain = 0
KCL2 220413Z 17013KT 21/15 A2993 RMK A01 T02100150  RH  068%=      5-min Rain = 0
KCL2 220414Z 17012KT 21/15 A2993 RMK A01 T02100149  RH  068%=      5-min Rain = 0
KCL2 220415Z 17013KT 21/15 A2993 RMK A01 T02090149  RH  069%=      5-min Rain = 0
KCL2 220416Z 17013KT 21/15 A2992 RMK A01 T02090149  RH  069%=      5-min Rain = 0
KCL2 220417Z 16012KT 21/15 A2993 RMK A01 T02090149  RH  069%=      5-min Rain = 0
KCL2 220418Z 17013KT 21/15 A2992 RMK A01 T02090150  RH  069%=      5-min Rain = 0
KCL2 220419Z 17013KT 21/15 A2992 RMK A01 T02080149  RH  069%=      5-min Rain = 0
KCL2 220420Z 17014KT 21/15 A2992 RMK A01 T02080149  RH  069%=      5-min Rain = 0
KCL2 220421Z 17013KT 21/15 A2992 RMK A01 T02080149  RH  069%=      5-min Rain = 0
KCL2 220422Z 16012KT 21/15 A2992 RMK A01 T02080149  RH  069%=      5-min Rain = 0
KCL2 220423Z 17013KT 21/15 A2992 RMK A01 T02080150  RH  069%=      5-min Rain = 0
KCL2 220424Z 16015KT 21/15 A2992 RMK A01 T02080150  RH  069%=      5-min Rain = 0
KCL2 220425Z 17013KT 21/15 A2992 RMK A01 T02080150  RH  069%=      5-min Rain = 0
KCL2 220426Z 17012KT 21/15 A2992 RMK A01 T02080150  RH  069%=      5-min Rain = 0
KCL2 220427Z 17012KT 21/15 A2992 RMK A01 T02080150  RH  069%=      5-min Rain = 0
KCL2 220428Z 17012KT 21/15 A2992 RMK A01 T02080150  RH  070%=      5-min Rain = 0
KCL2 220429Z 17012KT 21/15 A2992 RMK A01 T02080150  RH  070%=      5-min Rain = 0
KCL2 220430Z 17013KT 21/15 A2992 RMK A01 T02070150  RH  070%=      5-min Rain = 0
KCL2 220431Z 17012KT 21/15 A2992 RMK A01 T02070150  RH  070%=      5-min Rain = 0
KCL2 220432Z 17011KT 21/15 A2992 RMK A01 T02070150  RH  070%=      5-min Rain = 0
KCL2 220433Z 17010KT 21/15 A2992 RMK A01 T02070150  RH  070%=      5-min Rain = 0
KCL2 220434Z 17012KT 21/15 A2992 RMK A01 T02070150  RH  070%=      5-min Rain = 0
KCL2 220435Z 17014KT 21/15 A2992 RMK A01 T02060150  RH  070%=      5-min Rain = 0
KCL2 220436Z 17012KT 21/15 A2992 RMK A01 T02060151  RH  071%=      5-min Rain = 0
KCL2 220437Z 17013KT 21/15 A2992 RMK A01 T02060150  RH  071%=      5-min Rain = 0
KCL2 220438Z 17012KT 21/15 A2992 RMK A01 T02060151  RH  071%=      5-min Rain = 0
KCL2 220439Z 17012KT 21/15 A2992 RMK A01 T02050151  RH  071%=      5-min Rain = 0
KCL2 220440Z 17013KT 21/15 A2992 RMK A01 T02050151  RH  071%=      5-min Rain = 0
KCL2 220441Z 17013KT 21/15 A2992 RMK A01 T02050151  RH  071%=      5-min Rain = 0
KCL2 220442Z 17014KT 21/15 A2992 RMK A01 T02050151  RH  071%=      5-min Rain = 0
KCL2 220443Z 16012KT 21/15 A2992 RMK A01 T02060151  RH  071%=      5-min Rain = 0
KCL2 220444Z 17013KT 21/15 A2992 RMK A01 T02060151  RH  071%=      5-min Rain = 0
KCL2 220445Z 17013KT 21/15 A2992 RMK A01 T02050151  RH  071%=      5-min Rain = 0
KCL2 220446Z 17012G17KT 21/15 A2992 RMK A01 T02050151  RH  071%=      5-min Rain = 0
KCL2 220447Z 17012KT 21/15 A2992 RMK A01 T02050151  RH  071%=      5-min Rain = 0
KCL2 220448Z 16012KT 20/15 A2992 RMK A01 T02040151  RH  071%=      5-min Rain = 0
KCL2 220449Z 17013KT 20/15 A2992 RMK A01 T02040151  RH  071%=      5-min Rain = 0
KCL2 220450Z 17016KT 20/15 A2992 RMK A01 T02040151  RH  071%=      5-min Rain = 0
KCL2 220451Z 17014KT 21/15 A2992 RMK A01 T02050151  RH  071%=      5-min Rain = 0
KCL2 220452Z 17013KT 21/15 A2992 RMK A01 T02050151  RH  071%=      5-min Rain = 0
KCL2 220453Z 17011G16KT 21/15 A2992 RMK A01 T02050151  RH  071%=      5-min Rain = 0
KCL2 220454Z 17014KT 21/15 A2992 RMK A01 T02050151  RH  071%=      5-min Rain = 0
KCL2 220455Z 17011KT 21/15 A2992 RMK A01 T02050151  RH  071%=      5-min Rain = 0
KCL2 220456Z 17012KT 20/15 A2992 RMK A01 T02040151  RH  072%=      5-min Rain = 0
KCL2 220457Z 17015KT 20/15 A2992 RMK A01 T02040152  RH  072%=      5-min Rain = 0
KCL2 220458Z 17013KT 21/15 A2992 RMK A01 T02050152  RH  071%=      5-min Rain = 0
KCL2 220459Z 17014KT 21/15 A2992 RMK A01 T02050151  RH  071%=      5-min Rain = 0

Page generated in 0.0923 seconds.